<?xml version="1.0" encoding="UTF-8" standalone="no" ?>
<gpx xmlns="http://www.topografix.com/GPX/1/1" xmlns:xsi="http://www.w3.org/2001/XMLSchema-instance" xsi:schemaLocation="http://www.topografix.com/GPX/1/1 http://www.topografix.com/GPX/1/1/gpx.xsd" version="1.1" creator="VisuGPX - https://www.visugpx.com">
  <metadata>
    <name>rando </name>
    <desc><![CDATA[randonnée autour de pouzauges 85700]]></desc>
  </metadata>
  <trk>
    <name><![CDATA[MBS 01-03-15]]></name>
    <trkseg>
      <trkpt lat="46.69786" lon="-0.69572">
        <ele>225.57</ele>
        <time>2015-02-21T16:44:12Z</time>
      </trkpt>
      <trkpt lat="46.69789" lon="-0.69583">
        <ele>230.85</ele>
        <time>2015-02-21T16:45:13Z</time>
      </trkpt>
      <trkpt lat="46.69792" lon="-0.69578">
        <ele>191.44</ele>
        <time>2015-03-01T08:10:40Z</time>
      </trkpt>
      <trkpt lat="46.77784" lon="-0.84315">
        <ele>173.17</ele>
        <time>2015-03-01T08:17:28Z</time>
      </trkpt>
      <trkpt lat="46.77771" lon="-0.84456">
        <ele>173.17</ele>
        <time>2015-03-01T08:17:42Z</time>
      </trkpt>
      <trkpt lat="46.77751" lon="-0.8459">
        <ele>172.69</ele>
        <time>2015-03-01T08:17:50Z</time>
      </trkpt>
      <trkpt lat="46.77737" lon="-0.84731">
        <ele>172.21</ele>
        <time>2015-03-01T08:17:58Z</time>
      </trkpt>
      <trkpt lat="46.77757" lon="-0.84861">
        <ele>170.77</ele>
        <time>2015-03-01T08:18:08Z</time>
      </trkpt>
      <trkpt lat="46.77803" lon="-0.84984">
        <ele>168.37</ele>
        <time>2015-03-01T08:18:19Z</time>
      </trkpt>
      <trkpt lat="46.77894" lon="-0.85044">
        <ele>165.48</ele>
        <time>2015-03-01T08:18:28Z</time>
      </trkpt>
      <trkpt lat="46.77982" lon="-0.85029">
        <ele>162.12</ele>
        <time>2015-03-01T08:18:36Z</time>
      </trkpt>
      <trkpt lat="46.78067" lon="-0.84977">
        <ele>156.35</ele>
        <time>2015-03-01T08:18:45Z</time>
      </trkpt>
      <trkpt lat="46.78118" lon="-0.85086">
        <ele>152.51</ele>
        <time>2015-03-01T08:18:54Z</time>
      </trkpt>
      <trkpt lat="46.78147" lon="-0.8523">
        <ele>152.03</ele>
        <time>2015-03-01T08:19:02Z</time>
      </trkpt>
      <trkpt lat="46.78185" lon="-0.85356">
        <ele>152.03</ele>
        <time>2015-03-01T08:19:09Z</time>
      </trkpt>
      <trkpt lat="46.78219" lon="-0.85492">
        <ele>152.51</ele>
        <time>2015-03-01T08:19:16Z</time>
      </trkpt>
      <trkpt lat="46.78237" lon="-0.85632">
        <ele>152.99</ele>
        <time>2015-03-01T08:19:23Z</time>
      </trkpt>
      <trkpt lat="46.78246" lon="-0.85767">
        <ele>153.47</ele>
        <time>2015-03-01T08:19:31Z</time>
      </trkpt>
      <trkpt lat="46.78292" lon="-0.85869">
        <ele>153.47</ele>
        <time>2015-03-01T08:19:55Z</time>
      </trkpt>
      <trkpt lat="46.78348" lon="-0.85925">
        <ele>147.7</ele>
        <time>2015-03-01T08:20:23Z</time>
      </trkpt>
      <trkpt lat="46.7842" lon="-0.85832">
        <ele>140.49</ele>
        <time>2015-03-01T08:20:33Z</time>
      </trkpt>
      <trkpt lat="46.78497" lon="-0.85931">
        <ele>139.53</ele>
        <time>2015-03-01T08:20:48Z</time>
      </trkpt>
      <trkpt lat="46.78549" lon="-0.86066">
        <ele>137.61</ele>
        <time>2015-03-01T08:20:59Z</time>
      </trkpt>
      <trkpt lat="46.78634" lon="-0.8612">
        <ele>136.16</ele>
        <time>2015-03-01T08:21:13Z</time>
      </trkpt>
      <trkpt lat="46.78722" lon="-0.86096">
        <ele>136.16</ele>
        <time>2015-03-01T08:21:23Z</time>
      </trkpt>
      <trkpt lat="46.78815" lon="-0.85998">
        <ele>137.61</ele>
        <time>2015-03-01T08:21:30Z</time>
      </trkpt>
      <trkpt lat="46.78879" lon="-0.85884">
        <ele>140.49</ele>
        <time>2015-03-01T08:21:37Z</time>
      </trkpt>
      <trkpt lat="46.7892" lon="-0.85756">
        <ele>145.3</ele>
        <time>2015-03-01T08:21:45Z</time>
      </trkpt>
      <trkpt lat="46.78964" lon="-0.85643">
        <ele>158.75</ele>
        <time>2015-03-01T08:21:58Z</time>
      </trkpt>
      <trkpt lat="46.79015" lon="-0.85525">
        <ele>165</ele>
        <time>2015-03-01T08:22:11Z</time>
      </trkpt>
      <trkpt lat="46.79076" lon="-0.85421">
        <ele>169.33</ele>
        <time>2015-03-01T08:22:22Z</time>
      </trkpt>
      <trkpt lat="46.79149" lon="-0.85321">
        <ele>175.58</ele>
        <time>2015-03-01T08:22:35Z</time>
      </trkpt>
      <trkpt lat="46.79196" lon="-0.85188">
        <ele>182.31</ele>
        <time>2015-03-01T08:22:51Z</time>
      </trkpt>
      <trkpt lat="46.79196" lon="-0.85031">
        <ele>190.48</ele>
        <time>2015-03-01T08:23:04Z</time>
      </trkpt>
      <trkpt lat="46.79193" lon="-0.84881">
        <ele>202.98</ele>
        <time>2015-03-01T08:23:13Z</time>
      </trkpt>
      <trkpt lat="46.79203" lon="-0.8475">
        <ele>220.28</ele>
        <time>2015-03-01T08:23:30Z</time>
      </trkpt>
      <trkpt lat="46.79294" lon="-0.84671">
        <ele>225.57</ele>
        <time>2015-03-01T08:23:48Z</time>
      </trkpt>
      <trkpt lat="46.79357" lon="-0.84558">
        <ele>229.89</ele>
        <time>2015-03-01T08:24:04Z</time>
      </trkpt>
      <trkpt lat="46.79366" lon="-0.84407">
        <ele>227.01</ele>
        <time>2015-03-01T08:24:55Z</time>
      </trkpt>
      <trkpt lat="46.79303" lon="-0.84187">
        <ele>217.4</ele>
        <time>2015-03-01T08:25:18Z</time>
      </trkpt>
      <trkpt lat="46.79326" lon="-0.841">
        <ele>211.63</ele>
        <time>2015-03-01T08:25:42Z</time>
      </trkpt>
      <trkpt lat="46.79225" lon="-0.84034">
        <ele>190.96</ele>
        <time>2015-03-01T08:26:00Z</time>
      </trkpt>
      <trkpt lat="46.79238" lon="-0.83879">
        <ele>174.14</ele>
        <time>2015-03-01T08:26:11Z</time>
      </trkpt>
      <trkpt lat="46.79307" lon="-0.83752">
        <ele>167.89</ele>
        <time>2015-03-01T08:26:19Z</time>
      </trkpt>
      <trkpt lat="46.79362" lon="-0.83619">
        <ele>165.96</ele>
        <time>2015-03-01T08:26:26Z</time>
      </trkpt>
      <trkpt lat="46.79463" lon="-0.83565">
        <ele>164.52</ele>
        <time>2015-03-01T08:26:34Z</time>
      </trkpt>
      <trkpt lat="46.79558" lon="-0.83516">
        <ele>165</ele>
        <time>2015-03-01T08:26:40Z</time>
      </trkpt>
      <trkpt lat="46.79641" lon="-0.83454">
        <ele>164.52</ele>
        <time>2015-03-01T08:26:46Z</time>
      </trkpt>
      <trkpt lat="46.79704" lon="-0.83443">
        <ele>171.25</ele>
        <time>2015-03-01T08:27:13Z</time>
      </trkpt>
      <trkpt lat="46.79715" lon="-0.83266">
        <ele>168.37</ele>
        <time>2015-03-01T08:27:22Z</time>
      </trkpt>
      <trkpt lat="46.79762" lon="-0.83124">
        <ele>169.33</ele>
        <time>2015-03-01T08:27:31Z</time>
      </trkpt>
      <trkpt lat="46.79822" lon="-0.83029">
        <ele>161.64</ele>
        <time>2015-03-01T08:27:52Z</time>
      </trkpt>
      <trkpt lat="46.79902" lon="-0.82937">
        <ele>154.91</ele>
        <time>2015-03-01T08:28:07Z</time>
      </trkpt>
      <trkpt lat="46.79996" lon="-0.82881">
        <ele>153.95</ele>
        <time>2015-03-01T08:28:23Z</time>
      </trkpt>
      <trkpt lat="46.80087" lon="-0.82823">
        <ele>166.45</ele>
        <time>2015-03-01T08:28:37Z</time>
      </trkpt>
      <trkpt lat="46.80178" lon="-0.82774">
        <ele>171.73</ele>
        <time>2015-03-01T08:28:52Z</time>
      </trkpt>
      <trkpt lat="46.80263" lon="-0.82721">
        <ele>175.1</ele>
        <time>2015-03-01T08:29:06Z</time>
      </trkpt>
      <trkpt lat="46.80346" lon="-0.82661">
        <ele>181.35</ele>
        <time>2015-03-01T08:29:24Z</time>
      </trkpt>
      <trkpt lat="46.80434" lon="-0.82612">
        <ele>189.04</ele>
        <time>2015-03-01T08:29:41Z</time>
      </trkpt>
      <trkpt lat="46.80384" lon="-0.82464">
        <ele>203.46</ele>
        <time>2015-03-01T08:30:27Z</time>
      </trkpt>
      <trkpt lat="46.80343" lon="-0.82329">
        <ele>204.42</ele>
        <time>2015-03-01T08:30:36Z</time>
      </trkpt>
      <trkpt lat="46.80329" lon="-0.82188">
        <ele>206.82</ele>
        <time>2015-03-01T08:30:46Z</time>
      </trkpt>
      <trkpt lat="46.80323" lon="-0.82044">
        <ele>206.82</ele>
        <time>2015-03-01T08:30:56Z</time>
      </trkpt>
      <trkpt lat="46.8029" lon="-0.81944">
        <ele>200.57</ele>
        <time>2015-03-01T08:31:11Z</time>
      </trkpt>
      <trkpt lat="46.80214" lon="-0.81868">
        <ele>197.21</ele>
        <time>2015-03-01T08:31:22Z</time>
      </trkpt>
      <trkpt lat="46.80157" lon="-0.81745">
        <ele>194.32</ele>
        <time>2015-03-01T08:31:29Z</time>
      </trkpt>
      <trkpt lat="46.80108" lon="-0.81611">
        <ele>191.44</ele>
        <time>2015-03-01T08:31:36Z</time>
      </trkpt>
      <trkpt lat="46.80144" lon="-0.81486">
        <ele>189.52</ele>
        <time>2015-03-01T08:31:43Z</time>
      </trkpt>
      <trkpt lat="46.80187" lon="-0.81349">
        <ele>186.63</ele>
        <time>2015-03-01T08:31:50Z</time>
      </trkpt>
      <trkpt lat="46.80224" lon="-0.81224">
        <ele>182.79</ele>
        <time>2015-03-01T08:31:57Z</time>
      </trkpt>
      <trkpt lat="46.80287" lon="-0.8112">
        <ele>178.46</ele>
        <time>2015-03-01T08:32:04Z</time>
      </trkpt>
      <trkpt lat="46.80346" lon="-0.8102">
        <ele>176.06</ele>
        <time>2015-03-01T08:32:10Z</time>
      </trkpt>
      <trkpt lat="46.80412" lon="-0.8092">
        <ele>175.1</ele>
        <time>2015-03-01T08:32:18Z</time>
      </trkpt>
      <trkpt lat="46.80505" lon="-0.80864">
        <ele>172.69</ele>
        <time>2015-03-01T08:32:26Z</time>
      </trkpt>
      <trkpt lat="46.80607" lon="-0.80824">
        <ele>169.81</ele>
        <time>2015-03-01T08:32:34Z</time>
      </trkpt>
      <trkpt lat="46.80673" lon="-0.80727">
        <ele>168.85</ele>
        <time>2015-03-01T08:32:40Z</time>
      </trkpt>
      <trkpt lat="46.80737" lon="-0.80633">
        <ele>169.81</ele>
        <time>2015-03-01T08:32:47Z</time>
      </trkpt>
      <trkpt lat="46.8077" lon="-0.80509">
        <ele>171.25</ele>
        <time>2015-03-01T08:32:58Z</time>
      </trkpt>
      <trkpt lat="46.80788" lon="-0.80366">
        <ele>169.81</ele>
        <time>2015-03-01T08:33:05Z</time>
      </trkpt>
      <trkpt lat="46.80806" lon="-0.80235">
        <ele>167.89</ele>
        <time>2015-03-01T08:33:11Z</time>
      </trkpt>
      <trkpt lat="46.80826" lon="-0.80095">
        <ele>166.93</ele>
        <time>2015-03-01T08:33:17Z</time>
      </trkpt>
      <trkpt lat="46.80845" lon="-0.79953">
        <ele>165</ele>
        <time>2015-03-01T08:33:23Z</time>
      </trkpt>
      <trkpt lat="46.80864" lon="-0.79813">
        <ele>162.12</ele>
        <time>2015-03-01T08:33:29Z</time>
      </trkpt>
      <trkpt lat="46.8088" lon="-0.7967">
        <ele>159.24</ele>
        <time>2015-03-01T08:33:35Z</time>
      </trkpt>
      <trkpt lat="46.80872" lon="-0.79533">
        <ele>155.87</ele>
        <time>2015-03-01T08:33:41Z</time>
      </trkpt>
      <trkpt lat="46.80847" lon="-0.79382">
        <ele>158.75</ele>
        <time>2015-03-01T08:34:04Z</time>
      </trkpt>
      <trkpt lat="46.80818" lon="-0.79213">
        <ele>160.68</ele>
        <time>2015-03-01T08:34:10Z</time>
      </trkpt>
      <trkpt lat="46.80795" lon="-0.79056">
        <ele>162.6</ele>
        <time>2015-03-01T08:34:16Z</time>
      </trkpt>
      <trkpt lat="46.8077" lon="-0.78904">
        <ele>164.52</ele>
        <time>2015-03-01T08:34:22Z</time>
      </trkpt>
      <trkpt lat="46.80746" lon="-0.78762">
        <ele>165.96</ele>
        <time>2015-03-01T08:34:28Z</time>
      </trkpt>
      <trkpt lat="46.80719" lon="-0.78624">
        <ele>167.89</ele>
        <time>2015-03-01T08:34:34Z</time>
      </trkpt>
      <trkpt lat="46.80696" lon="-0.78494">
        <ele>172.21</ele>
        <time>2015-03-01T08:34:43Z</time>
      </trkpt>
      <trkpt lat="46.80684" lon="-0.7834">
        <ele>180.38</ele>
        <time>2015-03-01T08:34:57Z</time>
      </trkpt>
      <trkpt lat="46.80647" lon="-0.78214">
        <ele>184.71</ele>
        <time>2015-03-01T08:35:08Z</time>
      </trkpt>
      <trkpt lat="46.8056" lon="-0.78206">
        <ele>180.38</ele>
        <time>2015-03-01T08:35:35Z</time>
      </trkpt>
      <trkpt lat="46.80473" lon="-0.78103">
        <ele>166.45</ele>
        <time>2015-03-01T08:36:05Z</time>
      </trkpt>
      <trkpt lat="46.80393" lon="-0.7797">
        <ele>172.69</ele>
        <time>2015-03-01T08:36:27Z</time>
      </trkpt>
      <trkpt lat="46.80315" lon="-0.77941">
        <ele>169.33</ele>
        <time>2015-03-01T08:36:59Z</time>
      </trkpt>
      <trkpt lat="46.80223" lon="-0.77984">
        <ele>166.93</ele>
        <time>2015-03-01T08:37:19Z</time>
      </trkpt>
      <trkpt lat="46.80119" lon="-0.78026">
        <ele>166.45</ele>
        <time>2015-03-01T08:37:37Z</time>
      </trkpt>
      <trkpt lat="46.80016" lon="-0.78072">
        <ele>172.21</ele>
        <time>2015-03-01T08:38:18Z</time>
      </trkpt>
      <trkpt lat="46.7992" lon="-0.78121">
        <ele>174.62</ele>
        <time>2015-03-01T08:38:28Z</time>
      </trkpt>
      <trkpt lat="46.79837" lon="-0.78197">
        <ele>178.94</ele>
        <time>2015-03-01T08:38:40Z</time>
      </trkpt>
      <trkpt lat="46.79768" lon="-0.78286">
        <ele>183.27</ele>
        <time>2015-03-01T08:38:53Z</time>
      </trkpt>
      <trkpt lat="46.79706" lon="-0.78405">
        <ele>184.23</ele>
        <time>2015-03-01T08:38:59Z</time>
      </trkpt>
      <trkpt lat="46.79669" lon="-0.78545">
        <ele>186.15</ele>
        <time>2015-03-01T08:39:05Z</time>
      </trkpt>
      <trkpt lat="46.79638" lon="-0.78688">
        <ele>189.52</ele>
        <time>2015-03-01T08:39:12Z</time>
      </trkpt>
      <trkpt lat="46.7959" lon="-0.7882">
        <ele>190.96</ele>
        <time>2015-03-01T08:39:18Z</time>
      </trkpt>
      <trkpt lat="46.79535" lon="-0.78936">
        <ele>193.36</ele>
        <time>2015-03-01T08:39:24Z</time>
      </trkpt>
      <trkpt lat="46.79493" lon="-0.79063">
        <ele>195.77</ele>
        <time>2015-03-01T08:39:31Z</time>
      </trkpt>
      <trkpt lat="46.79452" lon="-0.792">
        <ele>198.65</ele>
        <time>2015-03-01T08:39:39Z</time>
      </trkpt>
      <trkpt lat="46.79414" lon="-0.79337">
        <ele>200.09</ele>
        <time>2015-03-01T08:39:46Z</time>
      </trkpt>
      <trkpt lat="46.79395" lon="-0.79472">
        <ele>202.49</ele>
        <time>2015-03-01T08:39:53Z</time>
      </trkpt>
      <trkpt lat="46.79321" lon="-0.79552">
        <ele>208.74</ele>
        <time>2015-03-01T08:40:08Z</time>
      </trkpt>
      <trkpt lat="46.79213" lon="-0.79519">
        <ele>217.4</ele>
        <time>2015-03-01T08:40:22Z</time>
      </trkpt>
      <trkpt lat="46.79103" lon="-0.79485">
        <ele>217.88</ele>
        <time>2015-03-01T08:40:33Z</time>
      </trkpt>
      <trkpt lat="46.7901" lon="-0.79553">
        <ele>219.8</ele>
        <time>2015-03-01T08:40:50Z</time>
      </trkpt>
      <trkpt lat="46.78909" lon="-0.796">
        <ele>221.24</ele>
        <time>2015-03-01T08:41:03Z</time>
      </trkpt>
      <trkpt lat="46.78755" lon="-0.79484">
        <ele>218.84</ele>
        <time>2015-03-01T08:41:31Z</time>
      </trkpt>
      <trkpt lat="46.78651" lon="-0.79402">
        <ele>223.16</ele>
        <time>2015-03-01T08:43:20Z</time>
      </trkpt>
      <trkpt lat="46.7866" lon="-0.79262">
        <ele>221.24</ele>
        <time>2015-03-01T08:43:30Z</time>
      </trkpt>
      <trkpt lat="46.78663" lon="-0.791">
        <ele>219.32</ele>
        <time>2015-03-01T08:43:37Z</time>
      </trkpt>
      <trkpt lat="46.78677" lon="-0.78937">
        <ele>218.84</ele>
        <time>2015-03-01T08:43:42Z</time>
      </trkpt>
      <trkpt lat="46.7869" lon="-0.78773">
        <ele>218.84</ele>
        <time>2015-03-01T08:43:47Z</time>
      </trkpt>
      <trkpt lat="46.787" lon="-0.7862">
        <ele>217.88</ele>
        <time>2015-03-01T08:43:52Z</time>
      </trkpt>
      <trkpt lat="46.78717" lon="-0.78476">
        <ele>215.95</ele>
        <time>2015-03-01T08:43:57Z</time>
      </trkpt>
      <trkpt lat="46.78738" lon="-0.78333">
        <ele>214.03</ele>
        <time>2015-03-01T08:44:02Z</time>
      </trkpt>
      <trkpt lat="46.78757" lon="-0.78184">
        <ele>211.63</ele>
        <time>2015-03-01T08:44:07Z</time>
      </trkpt>
      <trkpt lat="46.78778" lon="-0.78035">
        <ele>208.26</ele>
        <time>2015-03-01T08:44:12Z</time>
      </trkpt>
      <trkpt lat="46.78798" lon="-0.77892">
        <ele>204.9</ele>
        <time>2015-03-01T08:44:17Z</time>
      </trkpt>
      <trkpt lat="46.78815" lon="-0.77747">
        <ele>202.01</ele>
        <time>2015-03-01T08:44:22Z</time>
      </trkpt>
      <trkpt lat="46.78833" lon="-0.77606">
        <ele>199.61</ele>
        <time>2015-03-01T08:44:27Z</time>
      </trkpt>
      <trkpt lat="46.7885" lon="-0.77471">
        <ele>197.69</ele>
        <time>2015-03-01T08:44:32Z</time>
      </trkpt>
      <trkpt lat="46.78867" lon="-0.77322">
        <ele>196.25</ele>
        <time>2015-03-01T08:44:37Z</time>
      </trkpt>
      <trkpt lat="46.78886" lon="-0.77164">
        <ele>195.77</ele>
        <time>2015-03-01T08:44:42Z</time>
      </trkpt>
      <trkpt lat="46.78905" lon="-0.77006">
        <ele>194.8</ele>
        <time>2015-03-01T08:44:47Z</time>
      </trkpt>
      <trkpt lat="46.78923" lon="-0.76848">
        <ele>193.36</ele>
        <time>2015-03-01T08:44:52Z</time>
      </trkpt>
      <trkpt lat="46.78943" lon="-0.76693">
        <ele>192.4</ele>
        <time>2015-03-01T08:44:57Z</time>
      </trkpt>
      <trkpt lat="46.7896" lon="-0.76551">
        <ele>190.96</ele>
        <time>2015-03-01T08:45:02Z</time>
      </trkpt>
      <trkpt lat="46.78978" lon="-0.76404">
        <ele>190.48</ele>
        <time>2015-03-01T08:45:07Z</time>
      </trkpt>
      <trkpt lat="46.78997" lon="-0.7626">
        <ele>190</ele>
        <time>2015-03-01T08:45:12Z</time>
      </trkpt>
      <trkpt lat="46.79014" lon="-0.76114">
        <ele>190.48</ele>
        <time>2015-03-01T08:45:17Z</time>
      </trkpt>
      <trkpt lat="46.79032" lon="-0.75962">
        <ele>191.92</ele>
        <time>2015-03-01T08:45:22Z</time>
      </trkpt>
      <trkpt lat="46.79051" lon="-0.75819">
        <ele>193.84</ele>
        <time>2015-03-01T08:45:27Z</time>
      </trkpt>
      <trkpt lat="46.79069" lon="-0.75683">
        <ele>197.21</ele>
        <time>2015-03-01T08:45:33Z</time>
      </trkpt>
      <trkpt lat="46.79016" lon="-0.75631">
        <ele>200.57</ele>
        <time>2015-03-01T08:45:49Z</time>
      </trkpt>
      <trkpt lat="46.78921" lon="-0.75723">
        <ele>197.69</ele>
        <time>2015-03-01T08:45:59Z</time>
      </trkpt>
      <trkpt lat="46.78835" lon="-0.75782">
        <ele>198.17</ele>
        <time>2015-03-01T08:46:13Z</time>
      </trkpt>
      <trkpt lat="46.78818" lon="-0.75924">
        <ele>197.69</ele>
        <time>2015-03-01T08:46:25Z</time>
      </trkpt>
      <trkpt lat="46.7878" lon="-0.7606">
        <ele>197.69</ele>
        <time>2015-03-01T08:46:38Z</time>
      </trkpt>
      <trkpt lat="46.78749" lon="-0.762">
        <ele>199.13</ele>
        <time>2015-03-01T08:46:50Z</time>
      </trkpt>
      <trkpt lat="46.7869" lon="-0.76291">
        <ele>200.57</ele>
        <time>2015-03-01T08:47:19Z</time>
      </trkpt>
      <trkpt lat="46.78599" lon="-0.76351">
        <ele>202.98</ele>
        <time>2015-03-01T08:47:31Z</time>
      </trkpt>
      <trkpt lat="46.78506" lon="-0.76397">
        <ele>204.42</ele>
        <time>2015-03-01T08:47:42Z</time>
      </trkpt>
      <trkpt lat="46.78425" lon="-0.76445">
        <ele>203.94</ele>
        <time>2015-03-01T08:47:57Z</time>
      </trkpt>
      <trkpt lat="46.78339" lon="-0.76514">
        <ele>206.82</ele>
        <time>2015-03-01T08:48:16Z</time>
      </trkpt>
      <trkpt lat="46.78267" lon="-0.76434">
        <ele>198.17</ele>
        <time>2015-03-01T08:48:32Z</time>
      </trkpt>
      <trkpt lat="46.78193" lon="-0.76439">
        <ele>193.84</ele>
        <time>2015-03-01T08:48:57Z</time>
      </trkpt>
      <trkpt lat="46.78105" lon="-0.76376">
        <ele>196.25</ele>
        <time>2015-03-01T08:49:10Z</time>
      </trkpt>
      <trkpt lat="46.78045" lon="-0.76279">
        <ele>200.09</ele>
        <time>2015-03-01T08:49:23Z</time>
      </trkpt>
      <trkpt lat="46.77956" lon="-0.76232">
        <ele>200.09</ele>
        <time>2015-03-01T08:49:32Z</time>
      </trkpt>
      <trkpt lat="46.77868" lon="-0.7624">
        <ele>197.69</ele>
        <time>2015-03-01T08:49:43Z</time>
      </trkpt>
      <trkpt lat="46.77785" lon="-0.76343">
        <ele>196.73</ele>
        <time>2015-03-01T08:49:51Z</time>
      </trkpt>
      <trkpt lat="46.7771" lon="-0.76442">
        <ele>196.25</ele>
        <time>2015-03-01T08:49:58Z</time>
      </trkpt>
      <trkpt lat="46.77647" lon="-0.76569">
        <ele>195.77</ele>
        <time>2015-03-01T08:50:04Z</time>
      </trkpt>
      <trkpt lat="46.77591" lon="-0.76701">
        <ele>196.73</ele>
        <time>2015-03-01T08:50:10Z</time>
      </trkpt>
      <trkpt lat="46.77536" lon="-0.76829">
        <ele>197.69</ele>
        <time>2015-03-01T08:50:17Z</time>
      </trkpt>
      <trkpt lat="46.77497" lon="-0.76947">
        <ele>196.73</ele>
        <time>2015-03-01T08:50:31Z</time>
      </trkpt>
      <trkpt lat="46.77437" lon="-0.77065">
        <ele>194.8</ele>
        <time>2015-03-01T08:50:40Z</time>
      </trkpt>
      <trkpt lat="46.77407" lon="-0.7719">
        <ele>193.36</ele>
        <time>2015-03-01T08:50:49Z</time>
      </trkpt>
      <trkpt lat="46.77344" lon="-0.77301">
        <ele>190.48</ele>
        <time>2015-03-01T08:51:00Z</time>
      </trkpt>
      <trkpt lat="46.77252" lon="-0.77314">
        <ele>186.63</ele>
        <time>2015-03-01T08:51:16Z</time>
      </trkpt>
      <trkpt lat="46.77156" lon="-0.7735">
        <ele>183.75</ele>
        <time>2015-03-01T08:51:31Z</time>
      </trkpt>
      <trkpt lat="46.7707" lon="-0.77432">
        <ele>183.75</ele>
        <time>2015-03-01T08:51:44Z</time>
      </trkpt>
      <trkpt lat="46.77026" lon="-0.77543">
        <ele>180.87</ele>
        <time>2015-03-01T08:51:58Z</time>
      </trkpt>
      <trkpt lat="46.76933" lon="-0.77609">
        <ele>179.42</ele>
        <time>2015-03-01T08:52:10Z</time>
      </trkpt>
      <trkpt lat="46.76853" lon="-0.77683">
        <ele>179.42</ele>
        <time>2015-03-01T08:52:22Z</time>
      </trkpt>
      <trkpt lat="46.76863" lon="-0.77823">
        <ele>178.46</ele>
        <time>2015-03-01T08:52:33Z</time>
      </trkpt>
      <trkpt lat="46.76904" lon="-0.77956">
        <ele>181.35</ele>
        <time>2015-03-01T08:52:44Z</time>
      </trkpt>
      <trkpt lat="46.76895" lon="-0.78096">
        <ele>187.11</ele>
        <time>2015-03-01T08:52:56Z</time>
      </trkpt>
      <trkpt lat="46.76866" lon="-0.78223">
        <ele>197.21</ele>
        <time>2015-03-01T08:53:07Z</time>
      </trkpt>
      <trkpt lat="46.76755" lon="-0.78256">
        <ele>213.55</ele>
        <time>2015-03-01T08:53:44Z</time>
      </trkpt>
      <trkpt lat="46.76665" lon="-0.78324">
        <ele>215.47</ele>
        <time>2015-03-01T08:53:54Z</time>
      </trkpt>
      <trkpt lat="46.76592" lon="-0.78413">
        <ele>216.43</ele>
        <time>2015-03-01T08:54:04Z</time>
      </trkpt>
      <trkpt lat="46.76595" lon="-0.78546">
        <ele>218.36</ele>
        <time>2015-03-01T08:54:16Z</time>
      </trkpt>
      <trkpt lat="46.76548" lon="-0.7865">
        <ele>222.2</ele>
        <time>2015-03-01T08:54:35Z</time>
      </trkpt>
      <trkpt lat="46.76458" lon="-0.78708">
        <ele>224.12</ele>
        <time>2015-03-01T08:54:50Z</time>
      </trkpt>
      <trkpt lat="46.764" lon="-0.78815">
        <ele>226.05</ele>
        <time>2015-03-01T08:55:04Z</time>
      </trkpt>
      <trkpt lat="46.76383" lon="-0.78956">
        <ele>228.45</ele>
        <time>2015-03-01T08:55:15Z</time>
      </trkpt>
      <trkpt lat="46.76413" lon="-0.79101">
        <ele>231.33</ele>
        <time>2015-03-01T08:55:26Z</time>
      </trkpt>
      <trkpt lat="46.76427" lon="-0.79241">
        <ele>234.22</ele>
        <time>2015-03-01T08:55:35Z</time>
      </trkpt>
      <trkpt lat="46.76407" lon="-0.79381">
        <ele>237.1</ele>
        <time>2015-03-01T08:55:51Z</time>
      </trkpt>
      <trkpt lat="46.76335" lon="-0.79471">
        <ele>237.1</ele>
        <time>2015-03-01T08:56:00Z</time>
      </trkpt>
      <trkpt lat="46.76303" lon="-0.79575">
        <ele>231.33</ele>
        <time>2015-03-01T08:56:20Z</time>
      </trkpt>
      <trkpt lat="46.76249" lon="-0.79616">
        <ele>222.2</ele>
        <time>2015-03-01T08:56:42Z</time>
      </trkpt>
      <trkpt lat="46.76142" lon="-0.79567">
        <ele>214.99</ele>
        <time>2015-03-01T08:56:54Z</time>
      </trkpt>
      <trkpt lat="46.76057" lon="-0.79624">
        <ele>209.22</ele>
        <time>2015-03-01T08:57:05Z</time>
      </trkpt>
      <trkpt lat="46.76005" lon="-0.79734">
        <ele>204.9</ele>
        <time>2015-03-01T08:57:17Z</time>
      </trkpt>
      <trkpt lat="46.75892" lon="-0.79707">
        <ele>200.57</ele>
        <time>2015-03-01T08:57:26Z</time>
      </trkpt>
      <trkpt lat="46.75798" lon="-0.79704">
        <ele>193.36</ele>
        <time>2015-03-01T08:57:38Z</time>
      </trkpt>
      <trkpt lat="46.75739" lon="-0.79809">
        <ele>181.35</ele>
        <time>2015-03-01T08:57:50Z</time>
      </trkpt>
      <trkpt lat="46.75651" lon="-0.79872">
        <ele>175.58</ele>
        <time>2015-03-01T08:57:57Z</time>
      </trkpt>
      <trkpt lat="46.75559" lon="-0.79942">
        <ele>169.33</ele>
        <time>2015-03-01T08:58:05Z</time>
      </trkpt>
      <trkpt lat="46.75527" lon="-0.8005">
        <ele>160.68</ele>
        <time>2015-03-01T08:58:18Z</time>
      </trkpt>
      <trkpt lat="46.75541" lon="-0.80188">
        <ele>156.83</ele>
        <time>2015-03-01T08:58:27Z</time>
      </trkpt>
      <trkpt lat="46.7558" lon="-0.80304">
        <ele>152.03</ele>
        <time>2015-03-01T08:58:39Z</time>
      </trkpt>
      <trkpt lat="46.7563" lon="-0.8043">
        <ele>156.35</ele>
        <time>2015-03-01T08:58:50Z</time>
      </trkpt>
      <trkpt lat="46.75673" lon="-0.80546">
        <ele>166.93</ele>
        <time>2015-03-01T08:59:22Z</time>
      </trkpt>
      <trkpt lat="46.75671" lon="-0.80642">
        <ele>163.08</ele>
        <time>2015-03-01T08:59:38Z</time>
      </trkpt>
      <trkpt lat="46.75576" lon="-0.80616">
        <ele>152.99</ele>
        <time>2015-03-01T08:59:49Z</time>
      </trkpt>
      <trkpt lat="46.7548" lon="-0.8057">
        <ele>147.7</ele>
        <time>2015-03-01T09:00:10Z</time>
      </trkpt>
      <trkpt lat="46.75391" lon="-0.80579">
        <ele>143.85</ele>
        <time>2015-03-01T09:00:21Z</time>
      </trkpt>
      <trkpt lat="46.7531" lon="-0.80514">
        <ele>143.37</ele>
        <time>2015-03-01T09:00:40Z</time>
      </trkpt>
      <trkpt lat="46.75231" lon="-0.80466">
        <ele>138.57</ele>
        <time>2015-03-01T09:00:51Z</time>
      </trkpt>
      <trkpt lat="46.75187" lon="-0.8032">
        <ele>135.2</ele>
        <time>2015-03-01T09:00:59Z</time>
      </trkpt>
      <trkpt lat="46.75127" lon="-0.80208">
        <ele>132.32</ele>
        <time>2015-03-01T09:01:08Z</time>
      </trkpt>
      <trkpt lat="46.7504" lon="-0.80154">
        <ele>127.99</ele>
        <time>2015-03-01T09:01:19Z</time>
      </trkpt>
      <trkpt lat="46.74949" lon="-0.80115">
        <ele>123.19</ele>
        <time>2015-03-01T09:01:32Z</time>
      </trkpt>
      <trkpt lat="46.74844" lon="-0.80123">
        <ele>124.15</ele>
        <time>2015-03-01T09:02:13Z</time>
      </trkpt>
      <trkpt lat="46.74759" lon="-0.80078">
        <ele>125.11</ele>
        <time>2015-03-01T09:02:24Z</time>
      </trkpt>
      <trkpt lat="46.74676" lon="-0.79998">
        <ele>127.03</ele>
        <time>2015-03-01T09:02:33Z</time>
      </trkpt>
      <trkpt lat="46.74585" lon="-0.80056">
        <ele>131.36</ele>
        <time>2015-03-01T09:02:42Z</time>
      </trkpt>
      <trkpt lat="46.74497" lon="-0.80148">
        <ele>135.68</ele>
        <time>2015-03-01T09:02:51Z</time>
      </trkpt>
      <trkpt lat="46.74417" lon="-0.80224">
        <ele>140.01</ele>
        <time>2015-03-01T09:03:02Z</time>
      </trkpt>
      <trkpt lat="46.74316" lon="-0.80299">
        <ele>141.45</ele>
        <time>2015-03-01T09:03:09Z</time>
      </trkpt>
      <trkpt lat="46.74233" lon="-0.8037">
        <ele>141.45</ele>
        <time>2015-03-01T09:03:15Z</time>
      </trkpt>
      <trkpt lat="46.74196" lon="-0.80508">
        <ele>139.53</ele>
        <time>2015-03-01T09:03:22Z</time>
      </trkpt>
      <trkpt lat="46.74141" lon="-0.80602">
        <ele>137.61</ele>
        <time>2015-03-01T09:03:29Z</time>
      </trkpt>
      <trkpt lat="46.74061" lon="-0.80654">
        <ele>133.76</ele>
        <time>2015-03-01T09:03:40Z</time>
      </trkpt>
      <trkpt lat="46.74081" lon="-0.80823">
        <ele>126.55</ele>
        <time>2015-03-01T09:03:48Z</time>
      </trkpt>
      <trkpt lat="46.74099" lon="-0.80966">
        <ele>119.82</ele>
        <time>2015-03-01T09:03:59Z</time>
      </trkpt>
      <trkpt lat="46.7414" lon="-0.81059">
        <ele>118.86</ele>
        <time>2015-03-01T09:04:33Z</time>
      </trkpt>
      <trkpt lat="46.74096" lon="-0.81164">
        <ele>130.88</ele>
        <time>2015-03-01T09:13:27Z</time>
      </trkpt>
      <trkpt lat="46.74035" lon="-0.81262">
        <ele>129.43</ele>
        <time>2015-03-01T09:13:38Z</time>
      </trkpt>
      <trkpt lat="46.74016" lon="-0.81394">
        <ele>124.63</ele>
        <time>2015-03-01T09:13:53Z</time>
      </trkpt>
      <trkpt lat="46.73997" lon="-0.81531">
        <ele>124.63</ele>
        <time>2015-03-01T09:14:09Z</time>
      </trkpt>
      <trkpt lat="46.7402" lon="-0.81669">
        <ele>133.76</ele>
        <time>2015-03-01T09:15:41Z</time>
      </trkpt>
      <trkpt lat="46.7406" lon="-0.81796">
        <ele>137.61</ele>
        <time>2015-03-01T09:16:05Z</time>
      </trkpt>
      <trkpt lat="46.74124" lon="-0.81928">
        <ele>139.05</ele>
        <time>2015-03-01T09:16:12Z</time>
      </trkpt>
      <trkpt lat="46.74196" lon="-0.82012">
        <ele>140.97</ele>
        <time>2015-03-01T09:16:21Z</time>
      </trkpt>
      <trkpt lat="46.74281" lon="-0.82112">
        <ele>141.45</ele>
        <time>2015-03-01T09:16:28Z</time>
      </trkpt>
      <trkpt lat="46.74335" lon="-0.82223">
        <ele>140.49</ele>
        <time>2015-03-01T09:16:34Z</time>
      </trkpt>
      <trkpt lat="46.7437" lon="-0.82344">
        <ele>139.05</ele>
        <time>2015-03-01T09:16:41Z</time>
      </trkpt>
      <trkpt lat="46.7439" lon="-0.82466">
        <ele>138.57</ele>
        <time>2015-03-01T09:16:49Z</time>
      </trkpt>
      <trkpt lat="46.74436" lon="-0.82581">
        <ele>140.01</ele>
        <time>2015-03-01T09:16:58Z</time>
      </trkpt>
      <trkpt lat="46.7445" lon="-0.82707">
        <ele>142.41</ele>
        <time>2015-03-01T09:17:11Z</time>
      </trkpt>
      <trkpt lat="46.74469" lon="-0.82846">
        <ele>142.41</ele>
        <time>2015-03-01T09:17:21Z</time>
      </trkpt>
      <trkpt lat="46.74508" lon="-0.82984">
        <ele>144.82</ele>
        <time>2015-03-01T09:17:33Z</time>
      </trkpt>
      <trkpt lat="46.7451" lon="-0.8312">
        <ele>145.78</ele>
        <time>2015-03-01T09:17:47Z</time>
      </trkpt>
      <trkpt lat="46.74578" lon="-0.83191">
        <ele>143.37</ele>
        <time>2015-03-01T09:18:27Z</time>
      </trkpt>
      <trkpt lat="46.74653" lon="-0.83283">
        <ele>143.37</ele>
        <time>2015-03-01T09:18:38Z</time>
      </trkpt>
      <trkpt lat="46.74712" lon="-0.83383">
        <ele>143.37</ele>
        <time>2015-03-01T09:18:49Z</time>
      </trkpt>
      <trkpt lat="46.74766" lon="-0.83481">
        <ele>141.93</ele>
        <time>2015-03-01T09:19:01Z</time>
      </trkpt>
      <trkpt lat="46.74792" lon="-0.83606">
        <ele>140.01</ele>
        <time>2015-03-01T09:19:12Z</time>
      </trkpt>
      <trkpt lat="46.74764" lon="-0.83743">
        <ele>137.61</ele>
        <time>2015-03-01T09:19:22Z</time>
      </trkpt>
      <trkpt lat="46.74711" lon="-0.83863">
        <ele>134.24</ele>
        <time>2015-03-01T09:19:35Z</time>
      </trkpt>
      <trkpt lat="46.74662" lon="-0.8398">
        <ele>131.84</ele>
        <time>2015-03-01T09:19:46Z</time>
      </trkpt>
      <trkpt lat="46.74657" lon="-0.84119">
        <ele>130.88</ele>
        <time>2015-03-01T09:19:55Z</time>
      </trkpt>
      <trkpt lat="46.74653" lon="-0.84269">
        <ele>129.43</ele>
        <time>2015-03-01T09:20:02Z</time>
      </trkpt>
      <trkpt lat="46.74648" lon="-0.84404">
        <ele>127.99</ele>
        <time>2015-03-01T09:20:09Z</time>
      </trkpt>
      <trkpt lat="46.74645" lon="-0.84543">
        <ele>127.03</ele>
        <time>2015-03-01T09:20:16Z</time>
      </trkpt>
      <trkpt lat="46.74638" lon="-0.84672">
        <ele>126.07</ele>
        <time>2015-03-01T09:20:29Z</time>
      </trkpt>
      <trkpt lat="46.74694" lon="-0.84755">
        <ele>127.51</ele>
        <time>2015-03-01T09:21:40Z</time>
      </trkpt>
      <trkpt lat="46.74816" lon="-0.84676">
        <ele>127.03</ele>
        <time>2015-03-01T09:21:47Z</time>
      </trkpt>
      <trkpt lat="46.74914" lon="-0.84593">
        <ele>124.63</ele>
        <time>2015-03-01T09:21:54Z</time>
      </trkpt>
      <trkpt lat="46.75001" lon="-0.84527">
        <ele>122.71</ele>
        <time>2015-03-01T09:22:00Z</time>
      </trkpt>
      <trkpt lat="46.75091" lon="-0.84469">
        <ele>121.74</ele>
        <time>2015-03-01T09:22:07Z</time>
      </trkpt>
      <trkpt lat="46.75173" lon="-0.8438">
        <ele>122.71</ele>
        <time>2015-03-01T09:22:14Z</time>
      </trkpt>
      <trkpt lat="46.75239" lon="-0.84271">
        <ele>124.15</ele>
        <time>2015-03-01T09:22:20Z</time>
      </trkpt>
      <trkpt lat="46.75297" lon="-0.84166">
        <ele>127.03</ele>
        <time>2015-03-01T09:22:28Z</time>
      </trkpt>
      <trkpt lat="46.75375" lon="-0.84082">
        <ele>128.95</ele>
        <time>2015-03-01T09:22:36Z</time>
      </trkpt>
      <trkpt lat="46.75464" lon="-0.84049">
        <ele>126.55</ele>
        <time>2015-03-01T09:22:45Z</time>
      </trkpt>
      <trkpt lat="46.75554" lon="-0.84094">
        <ele>123.67</ele>
        <time>2015-03-01T09:22:53Z</time>
      </trkpt>
      <trkpt lat="46.75632" lon="-0.84129">
        <ele>122.71</ele>
        <time>2015-03-01T09:23:06Z</time>
      </trkpt>
      <trkpt lat="46.7561" lon="-0.84284">
        <ele>123.19</ele>
        <time>2015-03-01T09:23:17Z</time>
      </trkpt>
      <trkpt lat="46.75564" lon="-0.84424">
        <ele>124.15</ele>
        <time>2015-03-01T09:23:28Z</time>
      </trkpt>
      <trkpt lat="46.75529" lon="-0.84552">
        <ele>123.19</ele>
        <time>2015-03-01T09:23:39Z</time>
      </trkpt>
      <trkpt lat="46.75517" lon="-0.84682">
        <ele>121.26</ele>
        <time>2015-03-01T09:23:50Z</time>
      </trkpt>
      <trkpt lat="46.75571" lon="-0.84798">
        <ele>119.34</ele>
        <time>2015-03-01T09:23:59Z</time>
      </trkpt>
      <trkpt lat="46.75641" lon="-0.84902">
        <ele>119.82</ele>
        <time>2015-03-01T09:24:08Z</time>
      </trkpt>
      <trkpt lat="46.75701" lon="-0.85011">
        <ele>119.34</ele>
        <time>2015-03-01T09:24:21Z</time>
      </trkpt>
      <trkpt lat="46.75719" lon="-0.85149">
        <ele>121.74</ele>
        <time>2015-03-01T09:24:30Z</time>
      </trkpt>
      <trkpt lat="46.75714" lon="-0.85291">
        <ele>126.07</ele>
        <time>2015-03-01T09:24:41Z</time>
      </trkpt>
      <trkpt lat="46.75754" lon="-0.85423">
        <ele>127.99</ele>
        <time>2015-03-01T09:24:52Z</time>
      </trkpt>
      <trkpt lat="46.75785" lon="-0.85553">
        <ele>129.92</ele>
        <time>2015-03-01T09:24:58Z</time>
      </trkpt>
      <trkpt lat="46.7582" lon="-0.85693">
        <ele>133.28</ele>
        <time>2015-03-01T09:25:04Z</time>
      </trkpt>
      <trkpt lat="46.75855" lon="-0.85824">
        <ele>136.16</ele>
        <time>2015-03-01T09:25:11Z</time>
      </trkpt>
      <trkpt lat="46.75817" lon="-0.85914">
        <ele>137.13</ele>
        <time>2015-03-01T09:25:24Z</time>
      </trkpt>
      <trkpt lat="46.75846" lon="-0.86038">
        <ele>133.76</ele>
        <time>2015-03-01T09:25:35Z</time>
      </trkpt>
      <trkpt lat="46.75895" lon="-0.86183">
        <ele>129.92</ele>
        <time>2015-03-01T09:25:44Z</time>
      </trkpt>
      <trkpt lat="46.75906" lon="-0.86326">
        <ele>127.99</ele>
        <time>2015-03-01T09:25:53Z</time>
      </trkpt>
      <trkpt lat="46.7594" lon="-0.86457">
        <ele>129.92</ele>
        <time>2015-03-01T09:26:05Z</time>
      </trkpt>
      <trkpt lat="46.75901" lon="-0.86582">
        <ele>134.72</ele>
        <time>2015-03-01T09:26:32Z</time>
      </trkpt>
      <trkpt lat="46.75814" lon="-0.86689">
        <ele>133.76</ele>
        <time>2015-03-01T09:26:37Z</time>
      </trkpt>
      <trkpt lat="46.75735" lon="-0.86789">
        <ele>133.28</ele>
        <time>2015-03-01T09:26:43Z</time>
      </trkpt>
      <trkpt lat="46.7575" lon="-0.86892">
        <ele>130.88</ele>
        <time>2015-03-01T09:26:55Z</time>
      </trkpt>
      <trkpt lat="46.7573" lon="-0.87009">
        <ele>130.88</ele>
        <time>2015-03-01T09:27:10Z</time>
      </trkpt>
      <trkpt lat="46.7566" lon="-0.87134">
        <ele>129.43</ele>
        <time>2015-03-01T09:27:17Z</time>
      </trkpt>
      <trkpt lat="46.75598" lon="-0.87263">
        <ele>128.47</ele>
        <time>2015-03-01T09:27:23Z</time>
      </trkpt>
      <trkpt lat="46.75548" lon="-0.87396">
        <ele>126.55</ele>
        <time>2015-03-01T09:27:29Z</time>
      </trkpt>
      <trkpt lat="46.7551" lon="-0.87527">
        <ele>124.63</ele>
        <time>2015-03-01T09:27:36Z</time>
      </trkpt>
      <trkpt lat="46.75504" lon="-0.87611">
        <ele>122.22</ele>
        <time>2015-03-01T09:28:00Z</time>
      </trkpt>
      <trkpt lat="46.75542" lon="-0.87742">
        <ele>119.34</ele>
        <time>2015-03-01T09:28:13Z</time>
      </trkpt>
      <trkpt lat="46.75549" lon="-0.87879">
        <ele>112.61</ele>
        <time>2015-03-01T09:28:29Z</time>
      </trkpt>
      <trkpt lat="46.75536" lon="-0.88021">
        <ele>99.63</ele>
        <time>2015-03-01T09:28:54Z</time>
      </trkpt>
      <trkpt lat="46.75603" lon="-0.88144">
        <ele>93.39</ele>
        <time>2015-03-01T09:29:07Z</time>
      </trkpt>
      <trkpt lat="46.75651" lon="-0.88275">
        <ele>99.63</ele>
        <time>2015-03-01T09:29:16Z</time>
      </trkpt>
      <trkpt lat="46.75675" lon="-0.88418">
        <ele>107.32</ele>
        <time>2015-03-01T09:29:27Z</time>
      </trkpt>
      <trkpt lat="46.75706" lon="-0.88551">
        <ele>115.5</ele>
        <time>2015-03-01T09:29:38Z</time>
      </trkpt>
      <trkpt lat="46.75738" lon="-0.88681">
        <ele>119.34</ele>
        <time>2015-03-01T09:29:46Z</time>
      </trkpt>
      <trkpt lat="46.75797" lon="-0.88797">
        <ele>122.22</ele>
        <time>2015-03-01T09:29:52Z</time>
      </trkpt>
      <trkpt lat="46.75866" lon="-0.88893">
        <ele>125.59</ele>
        <time>2015-03-01T09:30:01Z</time>
      </trkpt>
      <trkpt lat="46.75925" lon="-0.89011">
        <ele>129.43</ele>
        <time>2015-03-01T09:30:11Z</time>
      </trkpt>
      <trkpt lat="46.75971" lon="-0.89139">
        <ele>131.36</ele>
        <time>2015-03-01T09:30:17Z</time>
      </trkpt>
      <trkpt lat="46.76013" lon="-0.89256">
        <ele>134.72</ele>
        <time>2015-03-01T09:30:24Z</time>
      </trkpt>
      <trkpt lat="46.76065" lon="-0.89364">
        <ele>138.57</ele>
        <time>2015-03-01T09:30:33Z</time>
      </trkpt>
      <trkpt lat="46.76042" lon="-0.89473">
        <ele>146.26</ele>
        <time>2015-03-01T09:30:47Z</time>
      </trkpt>
      <trkpt lat="46.75907" lon="-0.89503">
        <ele>140.01</ele>
        <time>2015-03-01T09:30:55Z</time>
      </trkpt>
      <trkpt lat="46.75801" lon="-0.89531">
        <ele>136.64</ele>
        <time>2015-03-01T09:31:02Z</time>
      </trkpt>
      <trkpt lat="46.75708" lon="-0.89534">
        <ele>131.36</ele>
        <time>2015-03-01T09:31:10Z</time>
      </trkpt>
      <trkpt lat="46.7562" lon="-0.89465">
        <ele>120.78</ele>
        <time>2015-03-01T09:31:19Z</time>
      </trkpt>
      <trkpt lat="46.75541" lon="-0.89383">
        <ele>106.84</ele>
        <time>2015-03-01T09:31:31Z</time>
      </trkpt>
      <trkpt lat="46.75454" lon="-0.8933">
        <ele>97.71</ele>
        <time>2015-03-01T09:31:43Z</time>
      </trkpt>
      <trkpt lat="46.75365" lon="-0.89346">
        <ele>81.85</ele>
        <time>2015-03-01T09:32:25Z</time>
      </trkpt>
      <trkpt lat="46.75308" lon="-0.89225">
        <ele>79.45</ele>
        <time>2015-03-01T09:32:39Z</time>
      </trkpt>
      <trkpt lat="46.75245" lon="-0.89098">
        <ele>85.69</ele>
        <time>2015-03-01T09:32:52Z</time>
      </trkpt>
      <trkpt lat="46.75176" lon="-0.89014">
        <ele>94.35</ele>
        <time>2015-03-01T09:33:06Z</time>
      </trkpt>
      <trkpt lat="46.75086" lon="-0.89075">
        <ele>101.08</ele>
        <time>2015-03-01T09:33:18Z</time>
      </trkpt>
      <trkpt lat="46.75" lon="-0.89149">
        <ele>106.84</ele>
        <time>2015-03-01T09:33:26Z</time>
      </trkpt>
      <trkpt lat="46.74915" lon="-0.89206">
        <ele>111.17</ele>
        <time>2015-03-01T09:33:36Z</time>
      </trkpt>
      <trkpt lat="46.74822" lon="-0.89255">
        <ele>114.05</ele>
        <time>2015-03-01T09:33:48Z</time>
      </trkpt>
      <trkpt lat="46.74728" lon="-0.89307">
        <ele>113.57</ele>
        <time>2015-03-01T09:33:57Z</time>
      </trkpt>
      <trkpt lat="46.74638" lon="-0.89349">
        <ele>113.09</ele>
        <time>2015-03-01T09:34:07Z</time>
      </trkpt>
      <trkpt lat="46.74549" lon="-0.89377">
        <ele>110.21</ele>
        <time>2015-03-01T09:34:23Z</time>
      </trkpt>
      <trkpt lat="46.74455" lon="-0.89416">
        <ele>104.92</ele>
        <time>2015-03-01T09:34:39Z</time>
      </trkpt>
      <trkpt lat="46.74362" lon="-0.89475">
        <ele>101.56</ele>
        <time>2015-03-01T09:35:03Z</time>
      </trkpt>
      <trkpt lat="46.7427" lon="-0.89504">
        <ele>100.11</ele>
        <time>2015-03-01T09:35:20Z</time>
      </trkpt>
      <trkpt lat="46.74174" lon="-0.89541">
        <ele>100.11</ele>
        <time>2015-03-01T09:35:34Z</time>
      </trkpt>
      <trkpt lat="46.7408" lon="-0.89551">
        <ele>100.11</ele>
        <time>2015-03-01T09:35:42Z</time>
      </trkpt>
      <trkpt lat="46.74068" lon="-0.89612">
        <ele>95.79</ele>
        <time>2015-03-01T09:35:56Z</time>
      </trkpt>
      <trkpt lat="46.74165" lon="-0.89638">
        <ele>91.94</ele>
        <time>2015-03-01T09:36:05Z</time>
      </trkpt>
      <trkpt lat="46.74269" lon="-0.89622">
        <ele>89.06</ele>
        <time>2015-03-01T09:36:13Z</time>
      </trkpt>
      <trkpt lat="46.74365" lon="-0.89659">
        <ele>88.1</ele>
        <time>2015-03-01T09:36:20Z</time>
      </trkpt>
      <trkpt lat="46.74402" lon="-0.89734">
        <ele>92.42</ele>
        <time>2015-03-01T09:36:49Z</time>
      </trkpt>
      <trkpt lat="46.74391" lon="-0.8988">
        <ele>95.79</ele>
        <time>2015-03-01T09:37:08Z</time>
      </trkpt>
      <trkpt lat="46.74396" lon="-0.90022">
        <ele>98.67</ele>
        <time>2015-03-01T09:37:25Z</time>
      </trkpt>
      <trkpt lat="46.74307" lon="-0.901">
        <ele>103.48</ele>
        <time>2015-03-01T09:38:01Z</time>
      </trkpt>
      <trkpt lat="46.74245" lon="-0.90191">
        <ele>103</ele>
        <time>2015-03-01T09:38:34Z</time>
      </trkpt>
      <trkpt lat="46.7432" lon="-0.90241">
        <ele>98.67</ele>
        <time>2015-03-01T09:38:57Z</time>
      </trkpt>
      <trkpt lat="46.74438" lon="-0.90193">
        <ele>105.88</ele>
        <time>2015-03-01T09:41:22Z</time>
      </trkpt>
      <trkpt lat="46.74544" lon="-0.90113">
        <ele>106.36</ele>
        <time>2015-03-01T09:42:33Z</time>
      </trkpt>
      <trkpt lat="46.74632" lon="-0.90047">
        <ele>113.09</ele>
        <time>2015-03-01T10:09:53Z</time>
      </trkpt>
      <trkpt lat="46.74712" lon="-0.89978">
        <ele>114.05</ele>
        <time>2015-03-01T10:10:08Z</time>
      </trkpt>
      <trkpt lat="46.74773" lon="-0.89986">
        <ele>116.46</ele>
        <time>2015-03-01T10:10:29Z</time>
      </trkpt>
      <trkpt lat="46.74776" lon="-0.90156">
        <ele>113.57</ele>
        <time>2015-03-01T10:10:35Z</time>
      </trkpt>
      <trkpt lat="46.74775" lon="-0.90308">
        <ele>113.09</ele>
        <time>2015-03-01T10:10:40Z</time>
      </trkpt>
      <trkpt lat="46.74777" lon="-0.90449">
        <ele>112.13</ele>
        <time>2015-03-01T10:10:45Z</time>
      </trkpt>
      <trkpt lat="46.74792" lon="-0.90592">
        <ele>111.65</ele>
        <time>2015-03-01T10:10:51Z</time>
      </trkpt>
      <trkpt lat="46.74848" lon="-0.90644">
        <ele>111.65</ele>
        <time>2015-03-01T10:11:05Z</time>
      </trkpt>
      <trkpt lat="46.74929" lon="-0.90571">
        <ele>115.5</ele>
        <time>2015-03-01T10:11:19Z</time>
      </trkpt>
      <trkpt lat="46.75012" lon="-0.90507">
        <ele>123.19</ele>
        <time>2015-03-01T10:11:42Z</time>
      </trkpt>
      <trkpt lat="46.75075" lon="-0.90403">
        <ele>127.51</ele>
        <time>2015-03-01T10:12:06Z</time>
      </trkpt>
      <trkpt lat="46.75103" lon="-0.90283">
        <ele>127.51</ele>
        <time>2015-03-01T10:12:24Z</time>
      </trkpt>
      <trkpt lat="46.75112" lon="-0.90123">
        <ele>126.55</ele>
        <time>2015-03-01T10:12:32Z</time>
      </trkpt>
      <trkpt lat="46.75115" lon="-0.89983">
        <ele>127.03</ele>
        <time>2015-03-01T10:12:41Z</time>
      </trkpt>
      <trkpt lat="46.75083" lon="-0.89848">
        <ele>127.03</ele>
        <time>2015-03-01T10:12:49Z</time>
      </trkpt>
      <trkpt lat="46.75142" lon="-0.89824">
        <ele>124.63</ele>
        <time>2015-03-01T10:13:03Z</time>
      </trkpt>
      <trkpt lat="46.75235" lon="-0.89889">
        <ele>120.78</ele>
        <time>2015-03-01T10:13:09Z</time>
      </trkpt>
      <trkpt lat="46.753" lon="-0.89992">
        <ele>113.57</ele>
        <time>2015-03-01T10:13:17Z</time>
      </trkpt>
      <trkpt lat="46.75318" lon="-0.90141">
        <ele>105.88</ele>
        <time>2015-03-01T10:13:24Z</time>
      </trkpt>
      <trkpt lat="46.75381" lon="-0.90251">
        <ele>98.67</ele>
        <time>2015-03-01T10:13:31Z</time>
      </trkpt>
      <trkpt lat="46.75477" lon="-0.90282">
        <ele>74.64</ele>
        <time>2015-03-01T10:14:26Z</time>
      </trkpt>
      <trkpt lat="46.75564" lon="-0.90353">
        <ele>88.58</ele>
        <time>2015-03-01T10:16:28Z</time>
      </trkpt>
      <trkpt lat="46.75657" lon="-0.90333">
        <ele>91.46</ele>
        <time>2015-03-01T10:16:39Z</time>
      </trkpt>
      <trkpt lat="46.75748" lon="-0.90338">
        <ele>95.79</ele>
        <time>2015-03-01T10:16:50Z</time>
      </trkpt>
      <trkpt lat="46.75814" lon="-0.90424">
        <ele>96.75</ele>
        <time>2015-03-01T10:17:03Z</time>
      </trkpt>
      <trkpt lat="46.75859" lon="-0.9053">
        <ele>94.83</ele>
        <time>2015-03-01T10:17:13Z</time>
      </trkpt>
      <trkpt lat="46.75965" lon="-0.90534">
        <ele>94.83</ele>
        <time>2015-03-01T10:17:21Z</time>
      </trkpt>
      <trkpt lat="46.7606" lon="-0.90543">
        <ele>96.27</ele>
        <time>2015-03-01T10:17:28Z</time>
      </trkpt>
      <trkpt lat="46.76156" lon="-0.90563">
        <ele>98.19</ele>
        <time>2015-03-01T10:17:35Z</time>
      </trkpt>
      <trkpt lat="46.76239" lon="-0.90652">
        <ele>100.11</ele>
        <time>2015-03-01T10:17:42Z</time>
      </trkpt>
      <trkpt lat="46.76319" lon="-0.9074">
        <ele>102.52</ele>
        <time>2015-03-01T10:17:50Z</time>
      </trkpt>
      <trkpt lat="46.76414" lon="-0.9075">
        <ele>103.48</ele>
        <time>2015-03-01T10:17:58Z</time>
      </trkpt>
      <trkpt lat="46.76509" lon="-0.90786">
        <ele>103.96</ele>
        <time>2015-03-01T10:18:06Z</time>
      </trkpt>
      <trkpt lat="46.76577" lon="-0.90879">
        <ele>104.44</ele>
        <time>2015-03-01T10:18:12Z</time>
      </trkpt>
      <trkpt lat="46.76662" lon="-0.90954">
        <ele>103.96</ele>
        <time>2015-03-01T10:18:19Z</time>
      </trkpt>
      <trkpt lat="46.76758" lon="-0.91">
        <ele>101.56</ele>
        <time>2015-03-01T10:18:27Z</time>
      </trkpt>
      <trkpt lat="46.76808" lon="-0.91121">
        <ele>96.75</ele>
        <time>2015-03-01T10:18:34Z</time>
      </trkpt>
      <trkpt lat="46.76853" lon="-0.91242">
        <ele>91.94</ele>
        <time>2015-03-01T10:18:40Z</time>
      </trkpt>
      <trkpt lat="46.76931" lon="-0.91327">
        <ele>88.1</ele>
        <time>2015-03-01T10:18:46Z</time>
      </trkpt>
      <trkpt lat="46.77018" lon="-0.91338">
        <ele>84.73</ele>
        <time>2015-03-01T10:18:53Z</time>
      </trkpt>
      <trkpt lat="46.77117" lon="-0.91315">
        <ele>82.81</ele>
        <time>2015-03-01T10:19:01Z</time>
      </trkpt>
      <trkpt lat="46.77202" lon="-0.91333">
        <ele>82.81</ele>
        <time>2015-03-01T10:19:12Z</time>
      </trkpt>
      <trkpt lat="46.77305" lon="-0.91328">
        <ele>80.41</ele>
        <time>2015-03-01T10:19:24Z</time>
      </trkpt>
      <trkpt lat="46.77433" lon="-0.91318">
        <ele>83.29</ele>
        <time>2015-03-01T10:19:31Z</time>
      </trkpt>
      <trkpt lat="46.77532" lon="-0.91355">
        <ele>88.58</ele>
        <time>2015-03-01T10:19:37Z</time>
      </trkpt>
      <trkpt lat="46.77621" lon="-0.91443">
        <ele>93.87</ele>
        <time>2015-03-01T10:19:44Z</time>
      </trkpt>
      <trkpt lat="46.777" lon="-0.91523">
        <ele>94.35</ele>
        <time>2015-03-01T10:19:50Z</time>
      </trkpt>
      <trkpt lat="46.77768" lon="-0.91626">
        <ele>92.42</ele>
        <time>2015-03-01T10:19:57Z</time>
      </trkpt>
      <trkpt lat="46.77819" lon="-0.91739">
        <ele>90.98</ele>
        <time>2015-03-01T10:20:04Z</time>
      </trkpt>
      <trkpt lat="46.77868" lon="-0.91742">
        <ele>85.21</ele>
        <time>2015-03-01T10:20:36Z</time>
      </trkpt>
      <trkpt lat="46.77939" lon="-0.91639">
        <ele>84.73</ele>
        <time>2015-03-01T10:20:48Z</time>
      </trkpt>
      <trkpt lat="46.78033" lon="-0.91578">
        <ele>84.25</ele>
        <time>2015-03-01T10:20:59Z</time>
      </trkpt>
      <trkpt lat="46.78088" lon="-0.91466">
        <ele>88.1</ele>
        <time>2015-03-01T10:21:08Z</time>
      </trkpt>
      <trkpt lat="46.78141" lon="-0.91351">
        <ele>95.31</ele>
        <time>2015-03-01T10:21:18Z</time>
      </trkpt>
      <trkpt lat="46.78169" lon="-0.91209">
        <ele>102.04</ele>
        <time>2015-03-01T10:21:29Z</time>
      </trkpt>
      <trkpt lat="46.78211" lon="-0.91082">
        <ele>106.84</ele>
        <time>2015-03-01T10:21:36Z</time>
      </trkpt>
      <trkpt lat="46.78257" lon="-0.90951">
        <ele>112.13</ele>
        <time>2015-03-01T10:21:43Z</time>
      </trkpt>
      <trkpt lat="46.78295" lon="-0.90828">
        <ele>116.46</ele>
        <time>2015-03-01T10:21:51Z</time>
      </trkpt>
      <trkpt lat="46.78323" lon="-0.90699">
        <ele>119.82</ele>
        <time>2015-03-01T10:22:00Z</time>
      </trkpt>
      <trkpt lat="46.78356" lon="-0.90568">
        <ele>123.67</ele>
        <time>2015-03-01T10:22:09Z</time>
      </trkpt>
      <trkpt lat="46.78376" lon="-0.90441">
        <ele>130.4</ele>
        <time>2015-03-01T10:22:38Z</time>
      </trkpt>
      <trkpt lat="46.784" lon="-0.90304">
        <ele>130.4</ele>
        <time>2015-03-01T10:22:48Z</time>
      </trkpt>
      <trkpt lat="46.78412" lon="-0.90166">
        <ele>131.36</ele>
        <time>2015-03-01T10:22:56Z</time>
      </trkpt>
      <trkpt lat="46.7838" lon="-0.9004">
        <ele>133.28</ele>
        <time>2015-03-01T10:23:08Z</time>
      </trkpt>
      <trkpt lat="46.78333" lon="-0.89925">
        <ele>135.2</ele>
        <time>2015-03-01T10:23:17Z</time>
      </trkpt>
      <trkpt lat="46.78318" lon="-0.89798">
        <ele>136.64</ele>
        <time>2015-03-01T10:23:29Z</time>
      </trkpt>
      <trkpt lat="46.78291" lon="-0.89669">
        <ele>136.16</ele>
        <time>2015-03-01T10:23:38Z</time>
      </trkpt>
      <trkpt lat="46.78261" lon="-0.89537">
        <ele>131.36</ele>
        <time>2015-03-01T10:23:55Z</time>
      </trkpt>
      <trkpt lat="46.78214" lon="-0.89408">
        <ele>127.99</ele>
        <time>2015-03-01T10:24:03Z</time>
      </trkpt>
      <trkpt lat="46.78173" lon="-0.89285">
        <ele>123.67</ele>
        <time>2015-03-01T10:24:11Z</time>
      </trkpt>
      <trkpt lat="46.78172" lon="-0.89144">
        <ele>119.82</ele>
        <time>2015-03-01T10:24:21Z</time>
      </trkpt>
      <trkpt lat="46.78205" lon="-0.89012">
        <ele>121.74</ele>
        <time>2015-03-01T10:24:32Z</time>
      </trkpt>
      <trkpt lat="46.78192" lon="-0.88873">
        <ele>122.22</ele>
        <time>2015-03-01T10:24:44Z</time>
      </trkpt>
      <trkpt lat="46.78222" lon="-0.88747">
        <ele>118.86</ele>
        <time>2015-03-01T10:24:59Z</time>
      </trkpt>
      <trkpt lat="46.78188" lon="-0.88619">
        <ele>118.86</ele>
        <time>2015-03-01T10:25:09Z</time>
      </trkpt>
      <trkpt lat="46.78144" lon="-0.88481">
        <ele>122.22</ele>
        <time>2015-03-01T10:25:18Z</time>
      </trkpt>
      <trkpt lat="46.78189" lon="-0.88387">
        <ele>127.51</ele>
        <time>2015-03-01T10:25:28Z</time>
      </trkpt>
      <trkpt lat="46.78268" lon="-0.88307">
        <ele>130.88</ele>
        <time>2015-03-01T10:25:35Z</time>
      </trkpt>
      <trkpt lat="46.78305" lon="-0.8818">
        <ele>136.64</ele>
        <time>2015-03-01T10:25:44Z</time>
      </trkpt>
      <trkpt lat="46.78368" lon="-0.88073">
        <ele>140.97</ele>
        <time>2015-03-01T10:25:52Z</time>
      </trkpt>
      <trkpt lat="46.78395" lon="-0.87959">
        <ele>143.85</ele>
        <time>2015-03-01T10:26:23Z</time>
      </trkpt>
      <trkpt lat="46.78381" lon="-0.87854">
        <ele>145.78</ele>
        <time>2015-03-01T10:26:39Z</time>
      </trkpt>
      <trkpt lat="46.78455" lon="-0.87765">
        <ele>143.37</ele>
        <time>2015-03-01T10:26:51Z</time>
      </trkpt>
      <trkpt lat="46.78539" lon="-0.87697">
        <ele>142.89</ele>
        <time>2015-03-01T10:27:07Z</time>
      </trkpt>
      <trkpt lat="46.78635" lon="-0.87615">
        <ele>142.89</ele>
        <time>2015-03-01T10:27:15Z</time>
      </trkpt>
      <trkpt lat="46.78723" lon="-0.87567">
        <ele>144.34</ele>
        <time>2015-03-01T10:27:21Z</time>
      </trkpt>
      <trkpt lat="46.78832" lon="-0.87585">
        <ele>148.18</ele>
        <time>2015-03-01T10:27:27Z</time>
      </trkpt>
      <trkpt lat="46.78939" lon="-0.87563">
        <ele>152.03</ele>
        <time>2015-03-01T10:27:33Z</time>
      </trkpt>
      <trkpt lat="46.79027" lon="-0.87509">
        <ele>156.83</ele>
        <time>2015-03-01T10:27:38Z</time>
      </trkpt>
      <trkpt lat="46.79129" lon="-0.87485">
        <ele>162.12</ele>
        <time>2015-03-01T10:27:44Z</time>
      </trkpt>
      <trkpt lat="46.79227" lon="-0.87464">
        <ele>166.45</ele>
        <time>2015-03-01T10:27:49Z</time>
      </trkpt>
      <trkpt lat="46.79307" lon="-0.87409">
        <ele>173.66</ele>
        <time>2015-03-01T10:27:58Z</time>
      </trkpt>
      <trkpt lat="46.79328" lon="-0.87273">
        <ele>176.06</ele>
        <time>2015-03-01T10:28:06Z</time>
      </trkpt>
      <trkpt lat="46.79347" lon="-0.87135">
        <ele>178.46</ele>
        <time>2015-03-01T10:28:16Z</time>
      </trkpt>
      <trkpt lat="46.79386" lon="-0.87055">
        <ele>178.46</ele>
        <time>2015-03-01T10:28:32Z</time>
      </trkpt>
      <trkpt lat="46.79464" lon="-0.87181">
        <ele>177.5</ele>
        <time>2015-03-01T10:28:41Z</time>
      </trkpt>
      <trkpt lat="46.79558" lon="-0.87158">
        <ele>179.9</ele>
        <time>2015-03-01T10:28:57Z</time>
      </trkpt>
      <trkpt lat="46.79656" lon="-0.872">
        <ele>179.42</ele>
        <time>2015-03-01T10:29:07Z</time>
      </trkpt>
      <trkpt lat="46.79681" lon="-0.87328">
        <ele>177.5</ele>
        <time>2015-03-01T10:29:13Z</time>
      </trkpt>
      <trkpt lat="46.79724" lon="-0.87459">
        <ele>174.62</ele>
        <time>2015-03-01T10:29:21Z</time>
      </trkpt>
      <trkpt lat="46.79789" lon="-0.87551">
        <ele>172.21</ele>
        <time>2015-03-01T10:29:27Z</time>
      </trkpt>
      <trkpt lat="46.79773" lon="-0.87646">
        <ele>170.77</ele>
        <time>2015-03-01T10:30:03Z</time>
      </trkpt>
      <trkpt lat="46.79842" lon="-0.87745">
        <ele>169.81</ele>
        <time>2015-03-01T10:30:16Z</time>
      </trkpt>
      <trkpt lat="46.79929" lon="-0.87811">
        <ele>164.52</ele>
        <time>2015-03-01T10:30:27Z</time>
      </trkpt>
      <trkpt lat="46.80006" lon="-0.87904">
        <ele>159.24</ele>
        <time>2015-03-01T10:30:39Z</time>
      </trkpt>
      <trkpt lat="46.80002" lon="-0.88009">
        <ele>143.37</ele>
        <time>2015-03-01T10:30:59Z</time>
      </trkpt>
      <trkpt lat="46.79928" lon="-0.88122">
        <ele>133.76</ele>
        <time>2015-03-01T10:31:10Z</time>
      </trkpt>
      <trkpt lat="46.7986" lon="-0.88225">
        <ele>131.36</ele>
        <time>2015-03-01T10:31:21Z</time>
      </trkpt>
      <trkpt lat="46.79766" lon="-0.88309">
        <ele>134.72</ele>
        <time>2015-03-01T10:31:28Z</time>
      </trkpt>
      <trkpt lat="46.79673" lon="-0.88359">
        <ele>140.49</ele>
        <time>2015-03-01T10:31:41Z</time>
      </trkpt>
      <trkpt lat="46.79584" lon="-0.88421">
        <ele>137.61</ele>
        <time>2015-03-01T10:32:03Z</time>
      </trkpt>
      <trkpt lat="46.79574" lon="-0.88543">
        <ele>126.55</ele>
        <time>2015-03-01T10:32:25Z</time>
      </trkpt>
      <trkpt lat="46.79656" lon="-0.88619">
        <ele>118.86</ele>
        <time>2015-03-01T10:32:39Z</time>
      </trkpt>
      <trkpt lat="46.79761" lon="-0.88642">
        <ele>108.77</ele>
        <time>2015-03-01T10:32:59Z</time>
      </trkpt>
      <trkpt lat="46.79866" lon="-0.88685">
        <ele>106.84</ele>
        <time>2015-03-01T10:33:17Z</time>
      </trkpt>
      <trkpt lat="46.79966" lon="-0.88723">
        <ele>106.84</ele>
        <time>2015-03-01T10:33:36Z</time>
      </trkpt>
      <trkpt lat="46.79985" lon="-0.88832">
        <ele>112.61</ele>
        <time>2015-03-01T10:33:52Z</time>
      </trkpt>
      <trkpt lat="46.79915" lon="-0.88937">
        <ele>113.57</ele>
        <time>2015-03-01T10:34:12Z</time>
      </trkpt>
      <trkpt lat="46.79939" lon="-0.89083">
        <ele>118.86</ele>
        <time>2015-03-01T10:34:27Z</time>
      </trkpt>
      <trkpt lat="46.79981" lon="-0.89203">
        <ele>119.34</ele>
        <time>2015-03-01T10:34:41Z</time>
      </trkpt>
      <trkpt lat="46.79878" lon="-0.89235">
        <ele>119.34</ele>
        <time>2015-03-01T10:34:53Z</time>
      </trkpt>
      <trkpt lat="46.79784" lon="-0.89194">
        <ele>120.78</ele>
        <time>2015-03-01T10:35:21Z</time>
      </trkpt>
      <trkpt lat="46.7972" lon="-0.89083">
        <ele>122.71</ele>
        <time>2015-03-01T10:35:28Z</time>
      </trkpt>
      <trkpt lat="46.79648" lon="-0.88987">
        <ele>122.71</ele>
        <time>2015-03-01T10:35:35Z</time>
      </trkpt>
      <trkpt lat="46.79572" lon="-0.88903">
        <ele>119.82</ele>
        <time>2015-03-01T10:35:43Z</time>
      </trkpt>
      <trkpt lat="46.79493" lon="-0.88964">
        <ele>118.86</ele>
        <time>2015-03-01T10:35:53Z</time>
      </trkpt>
      <trkpt lat="46.79444" lon="-0.89087">
        <ele>119.34</ele>
        <time>2015-03-01T10:36:01Z</time>
      </trkpt>
      <trkpt lat="46.79377" lon="-0.89013">
        <ele>123.67</ele>
        <time>2015-03-01T10:36:09Z</time>
      </trkpt>
      <trkpt lat="46.79324" lon="-0.88896">
        <ele>130.4</ele>
        <time>2015-03-01T10:36:17Z</time>
      </trkpt>
      <trkpt lat="46.79258" lon="-0.88787">
        <ele>138.09</ele>
        <time>2015-03-01T10:36:24Z</time>
      </trkpt>
      <trkpt lat="46.79172" lon="-0.88718">
        <ele>144.34</ele>
        <time>2015-03-01T10:36:31Z</time>
      </trkpt>
      <trkpt lat="46.79073" lon="-0.88706">
        <ele>148.66</ele>
        <time>2015-03-01T10:36:38Z</time>
      </trkpt>
      <trkpt lat="46.78979" lon="-0.88653">
        <ele>152.51</ele>
        <time>2015-03-01T10:36:44Z</time>
      </trkpt>
      <trkpt lat="46.78898" lon="-0.88586">
        <ele>155.87</ele>
        <time>2015-03-01T10:36:52Z</time>
      </trkpt>
      <trkpt lat="46.78914" lon="-0.88729">
        <ele>153.47</ele>
        <time>2015-03-01T10:37:09Z</time>
      </trkpt>
      <trkpt lat="46.78923" lon="-0.88868">
        <ele>152.51</ele>
        <time>2015-03-01T10:37:24Z</time>
      </trkpt>
      <trkpt lat="46.78911" lon="-0.8901">
        <ele>149.62</ele>
        <time>2015-03-01T10:37:41Z</time>
      </trkpt>
      <trkpt lat="46.78913" lon="-0.89149">
        <ele>147.7</ele>
        <time>2015-03-01T10:37:57Z</time>
      </trkpt>
      <trkpt lat="46.78937" lon="-0.89296">
        <ele>143.85</ele>
        <time>2015-03-01T10:38:21Z</time>
      </trkpt>
      <trkpt lat="46.78953" lon="-0.89434">
        <ele>138.09</ele>
        <time>2015-03-01T10:38:45Z</time>
      </trkpt>
      <trkpt lat="46.78985" lon="-0.89566">
        <ele>139.53</ele>
        <time>2015-03-01T10:38:58Z</time>
      </trkpt>
      <trkpt lat="46.79037" lon="-0.89674">
        <ele>140.01</ele>
        <time>2015-03-01T10:39:11Z</time>
      </trkpt>
      <trkpt lat="46.79123" lon="-0.89745">
        <ele>139.05</ele>
        <time>2015-03-01T10:39:19Z</time>
      </trkpt>
      <trkpt lat="46.79198" lon="-0.89825">
        <ele>136.16</ele>
        <time>2015-03-01T10:39:26Z</time>
      </trkpt>
      <trkpt lat="46.79271" lon="-0.89866">
        <ele>130.4</ele>
        <time>2015-03-01T10:39:41Z</time>
      </trkpt>
      <trkpt lat="46.79355" lon="-0.89826">
        <ele>123.67</ele>
        <time>2015-03-01T10:39:57Z</time>
      </trkpt>
      <trkpt lat="46.7938" lon="-0.8969">
        <ele>117.9</ele>
        <time>2015-03-01T10:40:12Z</time>
      </trkpt>
      <trkpt lat="46.79443" lon="-0.89722">
        <ele>107.81</ele>
        <time>2015-03-01T10:40:30Z</time>
      </trkpt>
      <trkpt lat="46.79514" lon="-0.89717">
        <ele>100.6</ele>
        <time>2015-03-01T10:40:51Z</time>
      </trkpt>
      <trkpt lat="46.79574" lon="-0.89603">
        <ele>104.44</ele>
        <time>2015-03-01T10:41:01Z</time>
      </trkpt>
      <trkpt lat="46.79642" lon="-0.89518">
        <ele>110.21</ele>
        <time>2015-03-01T10:41:16Z</time>
      </trkpt>
      <trkpt lat="46.79701" lon="-0.89635">
        <ele>109.25</ele>
        <time>2015-03-01T10:41:24Z</time>
      </trkpt>
      <trkpt lat="46.7977" lon="-0.89747">
        <ele>108.29</ele>
        <time>2015-03-01T10:41:30Z</time>
      </trkpt>
      <trkpt lat="46.79834" lon="-0.89839">
        <ele>106.84</ele>
        <time>2015-03-01T10:41:36Z</time>
      </trkpt>
      <trkpt lat="46.79875" lon="-0.89976">
        <ele>105.4</ele>
        <time>2015-03-01T10:41:43Z</time>
      </trkpt>
      <trkpt lat="46.79914" lon="-0.9008">
        <ele>108.77</ele>
        <time>2015-03-01T10:42:13Z</time>
      </trkpt>
      <trkpt lat="46.79979" lon="-0.9018">
        <ele>106.84</ele>
        <time>2015-03-01T10:42:23Z</time>
      </trkpt>
      <trkpt lat="46.80041" lon="-0.90286">
        <ele>105.88</ele>
        <time>2015-03-01T10:42:32Z</time>
      </trkpt>
      <trkpt lat="46.80073" lon="-0.90419">
        <ele>110.69</ele>
        <time>2015-03-01T10:43:03Z</time>
      </trkpt>
      <trkpt lat="46.80123" lon="-0.90535">
        <ele>113.09</ele>
        <time>2015-03-01T10:43:52Z</time>
      </trkpt>
      <trkpt lat="46.80184" lon="-0.90647">
        <ele>116.46</ele>
        <time>2015-03-01T10:44:01Z</time>
      </trkpt>
      <trkpt lat="46.80265" lon="-0.90737">
        <ele>120.3</ele>
        <time>2015-03-01T10:44:10Z</time>
      </trkpt>
      <trkpt lat="46.80343" lon="-0.90809">
        <ele>123.67</ele>
        <time>2015-03-01T10:44:20Z</time>
      </trkpt>
      <trkpt lat="46.80431" lon="-0.90864">
        <ele>125.11</ele>
        <time>2015-03-01T10:44:31Z</time>
      </trkpt>
      <trkpt lat="46.80525" lon="-0.90866">
        <ele>126.55</ele>
        <time>2015-03-01T10:44:39Z</time>
      </trkpt>
      <trkpt lat="46.80589" lon="-0.90784">
        <ele>126.55</ele>
        <time>2015-03-01T10:44:50Z</time>
      </trkpt>
      <trkpt lat="46.80597" lon="-0.90628">
        <ele>122.22</ele>
        <time>2015-03-01T10:44:58Z</time>
      </trkpt>
      <trkpt lat="46.80598" lon="-0.90496">
        <ele>123.19</ele>
        <time>2015-03-01T10:45:06Z</time>
      </trkpt>
      <trkpt lat="46.80666" lon="-0.90401">
        <ele>126.07</ele>
        <time>2015-03-01T10:45:16Z</time>
      </trkpt>
      <trkpt lat="46.80731" lon="-0.90479">
        <ele>130.4</ele>
        <time>2015-03-01T10:45:28Z</time>
      </trkpt>
      <trkpt lat="46.80817" lon="-0.90574">
        <ele>132.32</ele>
        <time>2015-03-01T10:45:35Z</time>
      </trkpt>
      <trkpt lat="46.80906" lon="-0.90623">
        <ele>134.72</ele>
        <time>2015-03-01T10:45:44Z</time>
      </trkpt>
      <trkpt lat="46.80994" lon="-0.90669">
        <ele>138.57</ele>
        <time>2015-03-01T10:45:52Z</time>
      </trkpt>
      <trkpt lat="46.81064" lon="-0.90757">
        <ele>143.37</ele>
        <time>2015-03-01T10:46:03Z</time>
      </trkpt>
      <trkpt lat="46.81142" lon="-0.90847">
        <ele>146.26</ele>
        <time>2015-03-01T10:46:12Z</time>
      </trkpt>
      <trkpt lat="46.81228" lon="-0.90918">
        <ele>148.66</ele>
        <time>2015-03-01T10:46:22Z</time>
      </trkpt>
      <trkpt lat="46.81286" lon="-0.91024">
        <ele>150.1</ele>
        <time>2015-03-01T10:46:33Z</time>
      </trkpt>
      <trkpt lat="46.81372" lon="-0.91069">
        <ele>148.66</ele>
        <time>2015-03-01T10:46:43Z</time>
      </trkpt>
      <trkpt lat="46.81443" lon="-0.91146">
        <ele>145.78</ele>
        <time>2015-03-01T10:47:00Z</time>
      </trkpt>
      <trkpt lat="46.81517" lon="-0.91237">
        <ele>142.41</ele>
        <time>2015-03-01T10:47:14Z</time>
      </trkpt>
      <trkpt lat="46.81579" lon="-0.91357">
        <ele>140.97</ele>
        <time>2015-03-01T10:47:28Z</time>
      </trkpt>
      <trkpt lat="46.81639" lon="-0.91473">
        <ele>144.34</ele>
        <time>2015-03-01T10:47:39Z</time>
      </trkpt>
      <trkpt lat="46.81704" lon="-0.9157">
        <ele>147.22</ele>
        <time>2015-03-01T10:47:51Z</time>
      </trkpt>
      <trkpt lat="46.81758" lon="-0.91691">
        <ele>152.51</ele>
        <time>2015-03-01T10:48:07Z</time>
      </trkpt>
      <trkpt lat="46.81814" lon="-0.91853">
        <ele>152.51</ele>
        <time>2015-03-01T10:48:13Z</time>
      </trkpt>
      <trkpt lat="46.81857" lon="-0.92003">
        <ele>150.1</ele>
        <time>2015-03-01T10:48:22Z</time>
      </trkpt>
      <trkpt lat="46.81934" lon="-0.91953">
        <ele>148.18</ele>
        <time>2015-03-01T10:48:38Z</time>
      </trkpt>
      <trkpt lat="46.82033" lon="-0.91928">
        <ele>148.18</ele>
        <time>2015-03-01T10:48:50Z</time>
      </trkpt>
      <trkpt lat="46.82098" lon="-0.91833">
        <ele>148.66</ele>
        <time>2015-03-01T10:49:00Z</time>
      </trkpt>
      <trkpt lat="46.82142" lon="-0.91711">
        <ele>149.62</ele>
        <time>2015-03-01T10:49:10Z</time>
      </trkpt>
      <trkpt lat="46.82196" lon="-0.91602">
        <ele>151.06</ele>
        <time>2015-03-01T10:49:24Z</time>
      </trkpt>
      <trkpt lat="46.82248" lon="-0.91487">
        <ele>151.54</ele>
        <time>2015-03-01T10:49:35Z</time>
      </trkpt>
      <trkpt lat="46.82238" lon="-0.91345">
        <ele>152.51</ele>
        <time>2015-03-01T10:49:43Z</time>
      </trkpt>
      <trkpt lat="46.82276" lon="-0.9122">
        <ele>157.31</ele>
        <time>2015-03-01T10:49:53Z</time>
      </trkpt>
      <trkpt lat="46.82375" lon="-0.9115">
        <ele>158.27</ele>
        <time>2015-03-01T10:50:03Z</time>
      </trkpt>
      <trkpt lat="46.82451" lon="-0.91138">
        <ele>160.68</ele>
        <time>2015-03-01T10:50:31Z</time>
      </trkpt>
      <trkpt lat="46.82456" lon="-0.91281">
        <ele>160.68</ele>
        <time>2015-03-01T10:50:38Z</time>
      </trkpt>
      <trkpt lat="46.82466" lon="-0.91413">
        <ele>160.2</ele>
        <time>2015-03-01T10:50:43Z</time>
      </trkpt>
      <trkpt lat="46.82459" lon="-0.9156">
        <ele>160.68</ele>
        <time>2015-03-01T10:50:49Z</time>
      </trkpt>
      <trkpt lat="46.82461" lon="-0.91702">
        <ele>160.68</ele>
        <time>2015-03-01T10:50:55Z</time>
      </trkpt>
      <trkpt lat="46.82435" lon="-0.91845">
        <ele>159.72</ele>
        <time>2015-03-01T10:51:01Z</time>
      </trkpt>
      <trkpt lat="46.82394" lon="-0.91985">
        <ele>156.83</ele>
        <time>2015-03-01T10:51:07Z</time>
      </trkpt>
      <trkpt lat="46.82345" lon="-0.92095">
        <ele>153.47</ele>
        <time>2015-03-01T10:51:13Z</time>
      </trkpt>
      <trkpt lat="46.8236" lon="-0.92228">
        <ele>150.58</ele>
        <time>2015-03-01T10:51:20Z</time>
      </trkpt>
      <trkpt lat="46.82347" lon="-0.92356">
        <ele>147.7</ele>
        <time>2015-03-01T10:51:27Z</time>
      </trkpt>
      <trkpt lat="46.82334" lon="-0.925">
        <ele>144.82</ele>
        <time>2015-03-01T10:51:35Z</time>
      </trkpt>
      <trkpt lat="46.82312" lon="-0.92625">
        <ele>139.05</ele>
        <time>2015-03-01T10:51:48Z</time>
      </trkpt>
      <trkpt lat="46.82227" lon="-0.92709">
        <ele>135.2</ele>
        <time>2015-03-01T10:51:56Z</time>
      </trkpt>
      <trkpt lat="46.8219" lon="-0.92822">
        <ele>133.76</ele>
        <time>2015-03-01T10:52:07Z</time>
      </trkpt>
      <trkpt lat="46.82232" lon="-0.9296">
        <ele>128.95</ele>
        <time>2015-03-01T10:52:29Z</time>
      </trkpt>
      <trkpt lat="46.82233" lon="-0.93112">
        <ele>118.86</ele>
        <time>2015-03-01T10:52:46Z</time>
      </trkpt>
      <trkpt lat="46.8232" lon="-0.93128">
        <ele>111.17</ele>
        <time>2015-03-01T10:52:57Z</time>
      </trkpt>
      <trkpt lat="46.82422" lon="-0.93108">
        <ele>108.29</ele>
        <time>2015-03-01T10:53:03Z</time>
      </trkpt>
      <trkpt lat="46.82528" lon="-0.93119">
        <ele>108.77</ele>
        <time>2015-03-01T10:53:09Z</time>
      </trkpt>
      <trkpt lat="46.82633" lon="-0.93129">
        <ele>110.69</ele>
        <time>2015-03-01T10:53:15Z</time>
      </trkpt>
      <trkpt lat="46.82724" lon="-0.93144">
        <ele>111.65</ele>
        <time>2015-03-01T10:53:21Z</time>
      </trkpt>
      <trkpt lat="46.82802" lon="-0.93157">
        <ele>115.98</ele>
        <time>2015-03-01T10:53:35Z</time>
      </trkpt>
      <trkpt lat="46.82837" lon="-0.93031">
        <ele>117.9</ele>
        <time>2015-03-01T10:53:53Z</time>
      </trkpt>
      <trkpt lat="46.82857" lon="-0.9289">
        <ele>118.86</ele>
        <time>2015-03-01T10:54:08Z</time>
      </trkpt>
      <trkpt lat="46.82809" lon="-0.92765">
        <ele>122.22</ele>
        <time>2015-03-01T10:54:24Z</time>
      </trkpt>
      <trkpt lat="46.82856" lon="-0.92653">
        <ele>128.47</ele>
        <time>2015-03-01T10:54:36Z</time>
      </trkpt>
      <trkpt lat="46.82924" lon="-0.92734">
        <ele>132.8</ele>
        <time>2015-03-01T10:55:03Z</time>
      </trkpt>
      <trkpt lat="46.83002" lon="-0.92817">
        <ele>131.36</ele>
        <time>2015-03-01T10:55:14Z</time>
      </trkpt>
      <trkpt lat="46.83094" lon="-0.92884">
        <ele>130.88</ele>
        <time>2015-03-01T10:55:24Z</time>
      </trkpt>
      <trkpt lat="46.83174" lon="-0.92959">
        <ele>131.84</ele>
        <time>2015-03-01T10:55:33Z</time>
      </trkpt>
      <trkpt lat="46.83243" lon="-0.93051">
        <ele>133.76</ele>
        <time>2015-03-01T10:55:44Z</time>
      </trkpt>
      <trkpt lat="46.83309" lon="-0.93147">
        <ele>137.61</ele>
        <time>2015-03-01T10:55:53Z</time>
      </trkpt>
      <trkpt lat="46.8336" lon="-0.93261">
        <ele>143.85</ele>
        <time>2015-03-01T10:56:04Z</time>
      </trkpt>
      <trkpt lat="46.83273" lon="-0.9332">
        <ele>157.31</ele>
        <time>2015-03-01T10:56:19Z</time>
      </trkpt>
      <trkpt lat="46.83111" lon="-0.93305">
        <ele>156.35</ele>
        <time>2015-03-01T10:56:26Z</time>
      </trkpt>
      <trkpt lat="46.83029" lon="-0.93328">
        <ele>150.58</ele>
        <time>2015-03-01T10:56:41Z</time>
      </trkpt>
      <trkpt lat="46.83091" lon="-0.93436">
        <ele>147.22</ele>
        <time>2015-03-01T10:56:55Z</time>
      </trkpt>
      <trkpt lat="46.83149" lon="-0.93547">
        <ele>147.22</ele>
        <time>2015-03-01T10:57:03Z</time>
      </trkpt>
      <trkpt lat="46.8322" lon="-0.93632">
        <ele>149.14</ele>
        <time>2015-03-01T10:57:12Z</time>
      </trkpt>
      <trkpt lat="46.83309" lon="-0.93669">
        <ele>151.54</ele>
        <time>2015-03-01T10:57:29Z</time>
      </trkpt>
      <trkpt lat="46.8336" lon="-0.93769">
        <ele>150.58</ele>
        <time>2015-03-01T10:57:42Z</time>
      </trkpt>
      <trkpt lat="46.83315" lon="-0.93892">
        <ele>148.18</ele>
        <time>2015-03-01T10:57:57Z</time>
      </trkpt>
      <trkpt lat="46.83381" lon="-0.93969">
        <ele>148.66</ele>
        <time>2015-03-01T10:58:09Z</time>
      </trkpt>
      <trkpt lat="46.83477" lon="-0.93974">
        <ele>148.18</ele>
        <time>2015-03-01T10:58:23Z</time>
      </trkpt>
      <trkpt lat="46.83538" lon="-0.94069">
        <ele>150.58</ele>
        <time>2015-03-01T10:58:38Z</time>
      </trkpt>
      <trkpt lat="46.83632" lon="-0.94054">
        <ele>151.54</ele>
        <time>2015-03-01T10:58:48Z</time>
      </trkpt>
      <trkpt lat="46.83697" lon="-0.93984">
        <ele>156.83</ele>
        <time>2015-03-01T10:59:02Z</time>
      </trkpt>
      <trkpt lat="46.83718" lon="-0.93838">
        <ele>156.35</ele>
        <time>2015-03-01T10:59:14Z</time>
      </trkpt>
      <trkpt lat="46.83752" lon="-0.93703">
        <ele>152.99</ele>
        <time>2015-03-01T10:59:31Z</time>
      </trkpt>
      <trkpt lat="46.83734" lon="-0.93563">
        <ele>152.51</ele>
        <time>2015-03-01T10:59:45Z</time>
      </trkpt>
      <trkpt lat="46.83751" lon="-0.93419">
        <ele>150.1</ele>
        <time>2015-03-01T10:59:59Z</time>
      </trkpt>
      <trkpt lat="46.8377" lon="-0.93278">
        <ele>153.47</ele>
        <time>2015-03-01T11:00:20Z</time>
      </trkpt>
      <trkpt lat="46.83803" lon="-0.93151">
        <ele>158.75</ele>
        <time>2015-03-01T11:00:35Z</time>
      </trkpt>
      <trkpt lat="46.83829" lon="-0.93016">
        <ele>163.56</ele>
        <time>2015-03-01T11:01:02Z</time>
      </trkpt>
      <trkpt lat="46.8385" lon="-0.92881">
        <ele>165</ele>
        <time>2015-03-01T11:01:14Z</time>
      </trkpt>
      <trkpt lat="46.83866" lon="-0.92743">
        <ele>166.93</ele>
        <time>2015-03-01T11:01:24Z</time>
      </trkpt>
      <trkpt lat="46.83878" lon="-0.92601">
        <ele>167.41</ele>
        <time>2015-03-01T11:01:40Z</time>
      </trkpt>
      <trkpt lat="46.8385" lon="-0.92474">
        <ele>168.85</ele>
        <time>2015-03-01T11:01:52Z</time>
      </trkpt>
      <trkpt lat="46.83838" lon="-0.92352">
        <ele>175.58</ele>
        <time>2015-03-01T11:02:40Z</time>
      </trkpt>
      <trkpt lat="46.83847" lon="-0.92216">
        <ele>188.56</ele>
        <time>2015-03-01T11:02:55Z</time>
      </trkpt>
      <trkpt lat="46.83905" lon="-0.92114">
        <ele>196.25</ele>
        <time>2015-03-01T11:03:10Z</time>
      </trkpt>
      <trkpt lat="46.83988" lon="-0.92081">
        <ele>202.98</ele>
        <time>2015-03-01T11:03:25Z</time>
      </trkpt>
      <trkpt lat="46.83997" lon="-0.91933">
        <ele>206.82</ele>
        <time>2015-03-01T11:03:42Z</time>
      </trkpt>
      <trkpt lat="46.84042" lon="-0.91808">
        <ele>216.43</ele>
        <time>2015-03-01T11:03:59Z</time>
      </trkpt>
      <trkpt lat="46.84058" lon="-0.91667">
        <ele>228.45</ele>
        <time>2015-03-01T11:04:13Z</time>
      </trkpt>
      <trkpt lat="46.84068" lon="-0.91514">
        <ele>242.87</ele>
        <time>2015-03-01T11:04:27Z</time>
      </trkpt>
      <trkpt lat="46.84036" lon="-0.91382">
        <ele>249.12</ele>
        <time>2015-03-01T11:04:38Z</time>
      </trkpt>
      <trkpt lat="46.84022" lon="-0.91234">
        <ele>250.56</ele>
        <time>2015-03-01T11:04:44Z</time>
      </trkpt>
      <trkpt lat="46.83995" lon="-0.91073">
        <ele>249.6</ele>
        <time>2015-03-01T11:04:50Z</time>
      </trkpt>
      <trkpt lat="46.83922" lon="-0.90967">
        <ele>248.64</ele>
        <time>2015-03-01T11:04:56Z</time>
      </trkpt>
      <trkpt lat="46.83856" lon="-0.90847">
        <ele>249.6</ele>
        <time>2015-03-01T11:05:03Z</time>
      </trkpt>
      <trkpt lat="46.83806" lon="-0.90734">
        <ele>248.64</ele>
        <time>2015-03-01T11:05:13Z</time>
      </trkpt>
      <trkpt lat="46.83897" lon="-0.90683">
        <ele>249.6</ele>
        <time>2015-03-01T11:05:29Z</time>
      </trkpt>
      <trkpt lat="46.8397" lon="-0.90604">
        <ele>251.52</ele>
        <time>2015-03-01T11:05:45Z</time>
      </trkpt>
      <trkpt lat="46.84039" lon="-0.90507">
        <ele>251.52</ele>
        <time>2015-03-01T11:06:02Z</time>
      </trkpt>
      <trkpt lat="46.84103" lon="-0.90392">
        <ele>247.2</ele>
        <time>2015-03-01T11:06:14Z</time>
      </trkpt>
      <trkpt lat="46.84128" lon="-0.9023">
        <ele>237.58</ele>
        <time>2015-03-01T11:06:29Z</time>
      </trkpt>
      <trkpt lat="46.84199" lon="-0.90124">
        <ele>222.2</ele>
        <time>2015-03-01T11:06:46Z</time>
      </trkpt>
      <trkpt lat="46.8428" lon="-0.90034">
        <ele>219.8</ele>
        <time>2015-03-01T11:06:57Z</time>
      </trkpt>
      <trkpt lat="46.84338" lon="-0.8992">
        <ele>218.36</ele>
        <time>2015-03-01T11:07:09Z</time>
      </trkpt>
      <trkpt lat="46.84369" lon="-0.89794">
        <ele>216.43</ele>
        <time>2015-03-01T11:07:22Z</time>
      </trkpt>
      <trkpt lat="46.84437" lon="-0.89705">
        <ele>216.43</ele>
        <time>2015-03-01T11:07:38Z</time>
      </trkpt>
      <trkpt lat="46.84526" lon="-0.89768">
        <ele>216.43</ele>
        <time>2015-03-01T11:07:47Z</time>
      </trkpt>
      <trkpt lat="46.84596" lon="-0.89872">
        <ele>215.47</ele>
        <time>2015-03-01T11:07:55Z</time>
      </trkpt>
      <trkpt lat="46.8469" lon="-0.89865">
        <ele>213.55</ele>
        <time>2015-03-01T11:08:04Z</time>
      </trkpt>
      <trkpt lat="46.8478" lon="-0.89822">
        <ele>211.63</ele>
        <time>2015-03-01T11:08:11Z</time>
      </trkpt>
      <trkpt lat="46.84864" lon="-0.89773">
        <ele>209.22</ele>
        <time>2015-03-01T11:08:20Z</time>
      </trkpt>
      <trkpt lat="46.84945" lon="-0.89876">
        <ele>202.49</ele>
        <time>2015-03-01T11:08:57Z</time>
      </trkpt>
      <trkpt lat="46.85013" lon="-0.90008">
        <ele>201.53</ele>
        <time>2015-03-01T11:09:03Z</time>
      </trkpt>
      <trkpt lat="46.85078" lon="-0.90133">
        <ele>199.13</ele>
        <time>2015-03-01T11:09:10Z</time>
      </trkpt>
      <trkpt lat="46.85174" lon="-0.90186">
        <ele>194.32</ele>
        <time>2015-03-01T11:09:20Z</time>
      </trkpt>
      <trkpt lat="46.85251" lon="-0.9027">
        <ele>190</ele>
        <time>2015-03-01T11:09:29Z</time>
      </trkpt>
      <trkpt lat="46.85331" lon="-0.90179">
        <ele>188.08</ele>
        <time>2015-03-01T11:09:37Z</time>
      </trkpt>
      <trkpt lat="46.85384" lon="-0.90042">
        <ele>188.08</ele>
        <time>2015-03-01T11:09:43Z</time>
      </trkpt>
      <trkpt lat="46.85434" lon="-0.89917">
        <ele>188.08</ele>
        <time>2015-03-01T11:09:49Z</time>
      </trkpt>
      <trkpt lat="46.8548" lon="-0.89799">
        <ele>190.48</ele>
        <time>2015-03-01T11:09:55Z</time>
      </trkpt>
      <trkpt lat="46.85522" lon="-0.89685">
        <ele>197.21</ele>
        <time>2015-03-01T11:10:06Z</time>
      </trkpt>
      <trkpt lat="46.85618" lon="-0.89684">
        <ele>205.38</ele>
        <time>2015-03-01T11:10:20Z</time>
      </trkpt>
      <trkpt lat="46.85709" lon="-0.89641">
        <ele>215.47</ele>
        <time>2015-03-01T11:10:31Z</time>
      </trkpt>
      <trkpt lat="46.85807" lon="-0.89646">
        <ele>224.61</ele>
        <time>2015-03-01T11:10:45Z</time>
      </trkpt>
      <trkpt lat="46.85893" lon="-0.8971">
        <ele>233.74</ele>
        <time>2015-03-01T11:11:02Z</time>
      </trkpt>
      <trkpt lat="46.85988" lon="-0.89669">
        <ele>235.66</ele>
        <time>2015-03-01T11:11:26Z</time>
      </trkpt>
      <trkpt lat="46.86061" lon="-0.89629">
        <ele>234.7</ele>
        <time>2015-03-01T11:12:22Z</time>
      </trkpt>
      <trkpt lat="46.86148" lon="-0.8969">
        <ele>227.49</ele>
        <time>2015-03-01T11:12:42Z</time>
      </trkpt>
      <trkpt lat="46.86244" lon="-0.89748">
        <ele>208.74</ele>
        <time>2015-03-01T11:13:12Z</time>
      </trkpt>
      <trkpt lat="46.86347" lon="-0.89806">
        <ele>196.25</ele>
        <time>2015-03-01T11:13:28Z</time>
      </trkpt>
      <trkpt lat="46.86453" lon="-0.89836">
        <ele>190.96</ele>
        <time>2015-03-01T11:13:37Z</time>
      </trkpt>
      <trkpt lat="46.86558" lon="-0.89865">
        <ele>188.08</ele>
        <time>2015-03-01T11:13:45Z</time>
      </trkpt>
      <trkpt lat="46.86627" lon="-0.89776">
        <ele>185.67</ele>
        <time>2015-03-01T11:13:54Z</time>
      </trkpt>
      <trkpt lat="46.86684" lon="-0.89662">
        <ele>189.52</ele>
        <time>2015-03-01T11:14:00Z</time>
      </trkpt>
      <trkpt lat="46.86722" lon="-0.89553">
        <ele>192.4</ele>
        <time>2015-03-01T11:14:16Z</time>
      </trkpt>
      <trkpt lat="46.86646" lon="-0.89323">
        <ele>189.52</ele>
        <time>2015-03-01T11:14:30Z</time>
      </trkpt>
      <trkpt lat="46.866" lon="-0.89197">
        <ele>191.44</ele>
        <time>2015-03-01T11:14:40Z</time>
      </trkpt>
      <trkpt lat="46.86543" lon="-0.89085">
        <ele>191.92</ele>
        <time>2015-03-01T11:14:52Z</time>
      </trkpt>
      <trkpt lat="46.86596" lon="-0.89166">
        <ele>189.04</ele>
        <time>2015-03-01T11:15:46Z</time>
      </trkpt>
      <trkpt lat="46.8666" lon="-0.89309">
        <ele>190.96</ele>
        <time>2015-03-01T11:16:02Z</time>
      </trkpt>
      <trkpt lat="46.86696" lon="-0.89452">
        <ele>183.75</ele>
        <time>2015-03-01T11:16:19Z</time>
      </trkpt>
      <trkpt lat="46.86722" lon="-0.89592">
        <ele>184.23</ele>
        <time>2015-03-01T11:16:37Z</time>
      </trkpt>
      <trkpt lat="46.86651" lon="-0.89695">
        <ele>186.63</ele>
        <time>2015-03-01T11:16:50Z</time>
      </trkpt>
      <trkpt lat="46.86596" lon="-0.89813">
        <ele>187.11</ele>
        <time>2015-03-01T11:16:58Z</time>
      </trkpt>
      <trkpt lat="46.86517" lon="-0.89865">
        <ele>186.15</ele>
        <time>2015-03-01T11:17:10Z</time>
      </trkpt>
      <trkpt lat="46.86424" lon="-0.8983">
        <ele>185.67</ele>
        <time>2015-03-01T11:17:19Z</time>
      </trkpt>
      <trkpt lat="46.86319" lon="-0.898">
        <ele>189.04</ele>
        <time>2015-03-01T11:17:30Z</time>
      </trkpt>
      <trkpt lat="46.86232" lon="-0.89766">
        <ele>190.96</ele>
        <time>2015-03-01T11:17:48Z</time>
      </trkpt>
      <trkpt lat="46.8624" lon="-0.8987">
        <ele>187.11</ele>
        <time>2015-03-01T11:18:29Z</time>
      </trkpt>
      <trkpt lat="46.86252" lon="-0.90048">
        <ele>185.67</ele>
        <time>2015-03-01T11:18:57Z</time>
      </trkpt>
      <trkpt lat="46.86236" lon="-0.90223">
        <ele>182.79</ele>
        <time>2015-03-01T11:19:21Z</time>
      </trkpt>
      <trkpt lat="46.86185" lon="-0.90357">
        <ele>183.75</ele>
        <time>2015-03-01T11:19:37Z</time>
      </trkpt>
      <trkpt lat="46.86103" lon="-0.90443">
        <ele>179.9</ele>
        <time>2015-03-01T11:19:52Z</time>
      </trkpt>
      <trkpt lat="46.86016" lon="-0.90512">
        <ele>174.62</ele>
        <time>2015-03-01T11:20:07Z</time>
      </trkpt>
      <trkpt lat="46.8599" lon="-0.90652">
        <ele>168.85</ele>
        <time>2015-03-01T11:20:24Z</time>
      </trkpt>
      <trkpt lat="46.85964" lon="-0.90792">
        <ele>165</ele>
        <time>2015-03-01T11:20:43Z</time>
      </trkpt>
      <trkpt lat="46.85966" lon="-0.90944">
        <ele>163.56</ele>
        <time>2015-03-01T11:20:56Z</time>
      </trkpt>
      <trkpt lat="46.86016" lon="-0.91071">
        <ele>158.27</ele>
        <time>2015-03-01T11:21:13Z</time>
      </trkpt>
      <trkpt lat="46.86013" lon="-0.91232">
        <ele>163.56</ele>
        <time>2015-03-01T11:56:41Z</time>
      </trkpt>
      <trkpt lat="46.85987" lon="-0.91378">
        <ele>160.68</ele>
        <time>2015-03-01T11:56:53Z</time>
      </trkpt>
      <trkpt lat="46.85903" lon="-0.91447">
        <ele>161.64</ele>
        <time>2015-03-01T11:57:10Z</time>
      </trkpt>
      <trkpt lat="46.85858" lon="-0.91585">
        <ele>160.68</ele>
        <time>2015-03-01T11:57:23Z</time>
      </trkpt>
      <trkpt lat="46.85772" lon="-0.91552">
        <ele>160.68</ele>
        <time>2015-03-01T11:57:37Z</time>
      </trkpt>
      <trkpt lat="46.85694" lon="-0.91465">
        <ele>161.64</ele>
        <time>2015-03-01T11:57:44Z</time>
      </trkpt>
      <trkpt lat="46.85623" lon="-0.91373">
        <ele>161.64</ele>
        <time>2015-03-01T11:57:50Z</time>
      </trkpt>
      <trkpt lat="46.85529" lon="-0.91316">
        <ele>163.08</ele>
        <time>2015-03-01T11:57:57Z</time>
      </trkpt>
      <trkpt lat="46.85464" lon="-0.91213">
        <ele>163.08</ele>
        <time>2015-03-01T11:58:04Z</time>
      </trkpt>
      <trkpt lat="46.85407" lon="-0.91092">
        <ele>162.6</ele>
        <time>2015-03-01T11:58:11Z</time>
      </trkpt>
      <trkpt lat="46.85347" lon="-0.90971">
        <ele>161.16</ele>
        <time>2015-03-01T11:58:18Z</time>
      </trkpt>
      <trkpt lat="46.85305" lon="-0.90842">
        <ele>161.16</ele>
        <time>2015-03-01T11:58:25Z</time>
      </trkpt>
      <trkpt lat="46.85268" lon="-0.90713">
        <ele>161.16</ele>
        <time>2015-03-01T11:58:32Z</time>
      </trkpt>
      <trkpt lat="46.85238" lon="-0.90569">
        <ele>162.12</ele>
        <time>2015-03-01T11:58:39Z</time>
      </trkpt>
      <trkpt lat="46.85208" lon="-0.90436">
        <ele>163.56</ele>
        <time>2015-03-01T11:58:45Z</time>
      </trkpt>
      <trkpt lat="46.85206" lon="-0.90298">
        <ele>167.41</ele>
        <time>2015-03-01T11:58:53Z</time>
      </trkpt>
      <trkpt lat="46.85181" lon="-0.90206">
        <ele>178.94</ele>
        <time>2015-03-01T11:59:07Z</time>
      </trkpt>
      <trkpt lat="46.85091" lon="-0.90113">
        <ele>179.42</ele>
        <time>2015-03-01T11:59:17Z</time>
      </trkpt>
      <trkpt lat="46.85018" lon="-0.89985">
        <ele>182.79</ele>
        <time>2015-03-01T11:59:24Z</time>
      </trkpt>
      <trkpt lat="46.84955" lon="-0.89874">
        <ele>187.11</ele>
        <time>2015-03-01T11:59:30Z</time>
      </trkpt>
      <trkpt lat="46.84893" lon="-0.8977">
        <ele>191.44</ele>
        <time>2015-03-01T11:59:37Z</time>
      </trkpt>
      <trkpt lat="46.84796" lon="-0.89806">
        <ele>193.36</ele>
        <time>2015-03-01T11:59:47Z</time>
      </trkpt>
      <trkpt lat="46.84692" lon="-0.89854">
        <ele>198.65</ele>
        <time>2015-03-01T11:59:54Z</time>
      </trkpt>
      <trkpt lat="46.84603" lon="-0.89883">
        <ele>205.86</ele>
        <time>2015-03-01T12:00:03Z</time>
      </trkpt>
      <trkpt lat="46.84526" lon="-0.89791">
        <ele>214.03</ele>
        <time>2015-03-01T12:00:13Z</time>
      </trkpt>
      <trkpt lat="46.84456" lon="-0.89699">
        <ele>219.32</ele>
        <time>2015-03-01T12:00:21Z</time>
      </trkpt>
      <trkpt lat="46.84361" lon="-0.89742">
        <ele>221.72</ele>
        <time>2015-03-01T12:00:29Z</time>
      </trkpt>
      <trkpt lat="46.84259" lon="-0.89744">
        <ele>221.72</ele>
        <time>2015-03-01T12:00:36Z</time>
      </trkpt>
      <trkpt lat="46.84174" lon="-0.89826">
        <ele>222.68</ele>
        <time>2015-03-01T12:00:43Z</time>
      </trkpt>
      <trkpt lat="46.841" lon="-0.89919">
        <ele>223.64</ele>
        <time>2015-03-01T12:00:48Z</time>
      </trkpt>
      <trkpt lat="46.84031" lon="-0.90005">
        <ele>225.09</ele>
        <time>2015-03-01T12:00:53Z</time>
      </trkpt>
      <trkpt lat="46.83961" lon="-0.90088">
        <ele>227.97</ele>
        <time>2015-03-01T12:00:59Z</time>
      </trkpt>
      <trkpt lat="46.83876" lon="-0.90152">
        <ele>232.78</ele>
        <time>2015-03-01T12:01:06Z</time>
      </trkpt>
      <trkpt lat="46.83793" lon="-0.90214">
        <ele>238.54</ele>
        <time>2015-03-01T12:01:13Z</time>
      </trkpt>
      <trkpt lat="46.83708" lon="-0.90255">
        <ele>248.16</ele>
        <time>2015-03-01T12:01:25Z</time>
      </trkpt>
      <trkpt lat="46.83657" lon="-0.90141">
        <ele>251.04</ele>
        <time>2015-03-01T12:01:37Z</time>
      </trkpt>
      <trkpt lat="46.83616" lon="-0.90009">
        <ele>250.56</ele>
        <time>2015-03-01T12:01:50Z</time>
      </trkpt>
      <trkpt lat="46.83615" lon="-0.89873">
        <ele>250.08</ele>
        <time>2015-03-01T12:02:06Z</time>
      </trkpt>
      <trkpt lat="46.83676" lon="-0.89735">
        <ele>246.72</ele>
        <time>2015-03-01T12:02:16Z</time>
      </trkpt>
      <trkpt lat="46.83699" lon="-0.89598">
        <ele>244.31</ele>
        <time>2015-03-01T12:02:28Z</time>
      </trkpt>
      <trkpt lat="46.83728" lon="-0.89469">
        <ele>242.39</ele>
        <time>2015-03-01T12:02:38Z</time>
      </trkpt>
      <trkpt lat="46.83711" lon="-0.89325">
        <ele>239.99</ele>
        <time>2015-03-01T12:02:49Z</time>
      </trkpt>
      <trkpt lat="46.83696" lon="-0.89184">
        <ele>239.51</ele>
        <time>2015-03-01T12:03:00Z</time>
      </trkpt>
      <trkpt lat="46.83677" lon="-0.89052">
        <ele>242.39</ele>
        <time>2015-03-01T12:03:13Z</time>
      </trkpt>
      <trkpt lat="46.83601" lon="-0.88971">
        <ele>244.79</ele>
        <time>2015-03-01T12:03:26Z</time>
      </trkpt>
      <trkpt lat="46.8353" lon="-0.8888">
        <ele>249.12</ele>
        <time>2015-03-01T12:03:41Z</time>
      </trkpt>
      <trkpt lat="46.83547" lon="-0.8874">
        <ele>249.6</ele>
        <time>2015-03-01T12:03:52Z</time>
      </trkpt>
      <trkpt lat="46.83585" lon="-0.8861">
        <ele>250.56</ele>
        <time>2015-03-01T12:04:08Z</time>
      </trkpt>
      <trkpt lat="46.83608" lon="-0.88445">
        <ele>250.08</ele>
        <time>2015-03-01T12:04:16Z</time>
      </trkpt>
      <trkpt lat="46.8365" lon="-0.8833">
        <ele>247.68</ele>
        <time>2015-03-01T12:04:53Z</time>
      </trkpt>
      <trkpt lat="46.836" lon="-0.88211">
        <ele>246.72</ele>
        <time>2015-03-01T12:04:59Z</time>
      </trkpt>
      <trkpt lat="46.83551" lon="-0.88077">
        <ele>245.75</ele>
        <time>2015-03-01T12:05:04Z</time>
      </trkpt>
      <trkpt lat="46.83502" lon="-0.87949">
        <ele>244.79</ele>
        <time>2015-03-01T12:05:09Z</time>
      </trkpt>
      <trkpt lat="46.83451" lon="-0.87841">
        <ele>243.83</ele>
        <time>2015-03-01T12:05:14Z</time>
      </trkpt>
      <trkpt lat="46.83408" lon="-0.877">
        <ele>242.39</ele>
        <time>2015-03-01T12:05:20Z</time>
      </trkpt>
      <trkpt lat="46.83377" lon="-0.87567">
        <ele>240.95</ele>
        <time>2015-03-01T12:05:26Z</time>
      </trkpt>
      <trkpt lat="46.83346" lon="-0.87438">
        <ele>238.06</ele>
        <time>2015-03-01T12:05:32Z</time>
      </trkpt>
      <trkpt lat="46.83279" lon="-0.87365">
        <ele>233.26</ele>
        <time>2015-03-01T12:05:43Z</time>
      </trkpt>
      <trkpt lat="46.83181" lon="-0.87386">
        <ele>230.85</ele>
        <time>2015-03-01T12:05:52Z</time>
      </trkpt>
      <trkpt lat="46.83097" lon="-0.87355">
        <ele>229.41</ele>
        <time>2015-03-01T12:06:14Z</time>
      </trkpt>
      <trkpt lat="46.83029" lon="-0.87256">
        <ele>231.81</ele>
        <time>2015-03-01T12:06:28Z</time>
      </trkpt>
      <trkpt lat="46.82998" lon="-0.87132">
        <ele>230.37</ele>
        <time>2015-03-01T12:06:41Z</time>
      </trkpt>
      <trkpt lat="46.8303" lon="-0.86989">
        <ele>228.45</ele>
        <time>2015-03-01T12:06:47Z</time>
      </trkpt>
      <trkpt lat="46.8302" lon="-0.8687">
        <ele>226.05</ele>
        <time>2015-03-01T12:06:58Z</time>
      </trkpt>
      <trkpt lat="46.82933" lon="-0.86794">
        <ele>224.12</ele>
        <time>2015-03-01T12:07:05Z</time>
      </trkpt>
      <trkpt lat="46.82887" lon="-0.86675">
        <ele>222.2</ele>
        <time>2015-03-01T12:07:12Z</time>
      </trkpt>
      <trkpt lat="46.8281" lon="-0.86595">
        <ele>216.43</ele>
        <time>2015-03-01T12:07:22Z</time>
      </trkpt>
      <trkpt lat="46.82717" lon="-0.86576">
        <ele>212.11</ele>
        <time>2015-03-01T12:07:28Z</time>
      </trkpt>
      <trkpt lat="46.82617" lon="-0.86547">
        <ele>207.78</ele>
        <time>2015-03-01T12:07:34Z</time>
      </trkpt>
      <trkpt lat="46.82519" lon="-0.86527">
        <ele>203.94</ele>
        <time>2015-03-01T12:07:40Z</time>
      </trkpt>
      <trkpt lat="46.82429" lon="-0.86528">
        <ele>201.53</ele>
        <time>2015-03-01T12:07:46Z</time>
      </trkpt>
      <trkpt lat="46.82328" lon="-0.86521">
        <ele>202.01</ele>
        <time>2015-03-01T12:07:53Z</time>
      </trkpt>
      <trkpt lat="46.82242" lon="-0.86491">
        <ele>206.82</ele>
        <time>2015-03-01T12:08:10Z</time>
      </trkpt>
      <trkpt lat="46.82146" lon="-0.86436">
        <ele>209.7</ele>
        <time>2015-03-01T12:08:21Z</time>
      </trkpt>
      <trkpt lat="46.82043" lon="-0.86443">
        <ele>212.59</ele>
        <time>2015-03-01T12:08:32Z</time>
      </trkpt>
      <trkpt lat="46.8195" lon="-0.86483">
        <ele>215.47</ele>
        <time>2015-03-01T12:08:44Z</time>
      </trkpt>
      <trkpt lat="46.81857" lon="-0.86485">
        <ele>220.76</ele>
        <time>2015-03-01T12:08:57Z</time>
      </trkpt>
      <trkpt lat="46.81755" lon="-0.86441">
        <ele>227.01</ele>
        <time>2015-03-01T12:09:09Z</time>
      </trkpt>
      <trkpt lat="46.81651" lon="-0.86424">
        <ele>228.93</ele>
        <time>2015-03-01T12:09:20Z</time>
      </trkpt>
      <trkpt lat="46.81579" lon="-0.86353">
        <ele>231.33</ele>
        <time>2015-03-01T12:09:35Z</time>
      </trkpt>
      <trkpt lat="46.8154" lon="-0.86229">
        <ele>230.37</ele>
        <time>2015-03-01T12:09:47Z</time>
      </trkpt>
      <trkpt lat="46.81488" lon="-0.8614">
        <ele>237.58</ele>
        <time>2015-03-01T12:10:02Z</time>
      </trkpt>
      <trkpt lat="46.8141" lon="-0.86232">
        <ele>240.95</ele>
        <time>2015-03-01T12:10:11Z</time>
      </trkpt>
      <trkpt lat="46.8134" lon="-0.86349">
        <ele>242.39</ele>
        <time>2015-03-01T12:10:18Z</time>
      </trkpt>
      <trkpt lat="46.81267" lon="-0.86337">
        <ele>240.95</ele>
        <time>2015-03-01T12:10:36Z</time>
      </trkpt>
      <trkpt lat="46.81194" lon="-0.86241">
        <ele>237.1</ele>
        <time>2015-03-01T12:10:47Z</time>
      </trkpt>
      <trkpt lat="46.81127" lon="-0.86124">
        <ele>230.85</ele>
        <time>2015-03-01T12:10:58Z</time>
      </trkpt>
      <trkpt lat="46.81086" lon="-0.85998">
        <ele>226.05</ele>
        <time>2015-03-01T12:11:05Z</time>
      </trkpt>
      <trkpt lat="46.81023" lon="-0.85929">
        <ele>219.8</ele>
        <time>2015-03-01T12:11:41Z</time>
      </trkpt>
      <trkpt lat="46.80952" lon="-0.85832">
        <ele>219.8</ele>
        <time>2015-03-01T12:11:51Z</time>
      </trkpt>
      <trkpt lat="46.80893" lon="-0.85734">
        <ele>219.32</ele>
        <time>2015-03-01T12:12:02Z</time>
      </trkpt>
      <trkpt lat="46.80817" lon="-0.85639">
        <ele>218.84</ele>
        <time>2015-03-01T12:12:10Z</time>
      </trkpt>
      <trkpt lat="46.80763" lon="-0.85514">
        <ele>216.91</ele>
        <time>2015-03-01T12:12:18Z</time>
      </trkpt>
      <trkpt lat="46.80699" lon="-0.85393">
        <ele>216.43</ele>
        <time>2015-03-01T12:12:25Z</time>
      </trkpt>
      <trkpt lat="46.80636" lon="-0.85286">
        <ele>215.95</ele>
        <time>2015-03-01T12:12:31Z</time>
      </trkpt>
      <trkpt lat="46.80557" lon="-0.85213">
        <ele>214.99</ele>
        <time>2015-03-01T12:12:37Z</time>
      </trkpt>
      <trkpt lat="46.80462" lon="-0.85171">
        <ele>214.51</ele>
        <time>2015-03-01T12:12:43Z</time>
      </trkpt>
      <trkpt lat="46.80374" lon="-0.85112">
        <ele>214.51</ele>
        <time>2015-03-01T12:12:49Z</time>
      </trkpt>
      <trkpt lat="46.80308" lon="-0.8502">
        <ele>214.03</ele>
        <time>2015-03-01T12:12:55Z</time>
      </trkpt>
      <trkpt lat="46.80222" lon="-0.84934">
        <ele>213.55</ele>
        <time>2015-03-01T12:13:02Z</time>
      </trkpt>
      <trkpt lat="46.80128" lon="-0.84926">
        <ele>213.07</ele>
        <time>2015-03-01T12:13:09Z</time>
      </trkpt>
      <trkpt lat="46.80069" lon="-0.8482">
        <ele>214.51</ele>
        <time>2015-03-01T12:13:17Z</time>
      </trkpt>
      <trkpt lat="46.80004" lon="-0.84706">
        <ele>215.47</ele>
        <time>2015-03-01T12:13:23Z</time>
      </trkpt>
      <trkpt lat="46.79939" lon="-0.84607">
        <ele>217.88</ele>
        <time>2015-03-01T12:13:29Z</time>
      </trkpt>
      <trkpt lat="46.79881" lon="-0.84501">
        <ele>219.32</ele>
        <time>2015-03-01T12:13:35Z</time>
      </trkpt>
      <trkpt lat="46.79828" lon="-0.844">
        <ele>220.28</ele>
        <time>2015-03-01T12:13:48Z</time>
      </trkpt>
      <trkpt lat="46.79933" lon="-0.84389">
        <ele>215.95</ele>
        <time>2015-03-01T12:14:01Z</time>
      </trkpt>
      <trkpt lat="46.80044" lon="-0.84381">
        <ele>212.11</ele>
        <time>2015-03-01T12:14:10Z</time>
      </trkpt>
      <trkpt lat="46.80145" lon="-0.84315">
        <ele>209.7</ele>
        <time>2015-03-01T12:14:16Z</time>
      </trkpt>
      <trkpt lat="46.80227" lon="-0.84219">
        <ele>207.78</ele>
        <time>2015-03-01T12:14:22Z</time>
      </trkpt>
      <trkpt lat="46.80328" lon="-0.8417">
        <ele>206.82</ele>
        <time>2015-03-01T12:14:29Z</time>
      </trkpt>
      <trkpt lat="46.80414" lon="-0.84105">
        <ele>204.9</ele>
        <time>2015-03-01T12:14:35Z</time>
      </trkpt>
      <trkpt lat="46.80502" lon="-0.84018">
        <ele>202.49</ele>
        <time>2015-03-01T12:14:41Z</time>
      </trkpt>
      <trkpt lat="46.80588" lon="-0.83949">
        <ele>200.57</ele>
        <time>2015-03-01T12:14:46Z</time>
      </trkpt>
      <trkpt lat="46.80689" lon="-0.83897">
        <ele>198.65</ele>
        <time>2015-03-01T12:14:52Z</time>
      </trkpt>
      <trkpt lat="46.80784" lon="-0.83858">
        <ele>196.25</ele>
        <time>2015-03-01T12:14:58Z</time>
      </trkpt>
      <trkpt lat="46.80878" lon="-0.83858">
        <ele>192.88</ele>
        <time>2015-03-01T12:15:04Z</time>
      </trkpt>
      <trkpt lat="46.80959" lon="-0.83802">
        <ele>190.96</ele>
        <time>2015-03-01T12:15:10Z</time>
      </trkpt>
      <trkpt lat="46.81047" lon="-0.83756">
        <ele>190.48</ele>
        <time>2015-03-01T12:15:16Z</time>
      </trkpt>
      <trkpt lat="46.81102" lon="-0.83707">
        <ele>191.44</ele>
        <time>2015-03-01T12:15:28Z</time>
      </trkpt>
      <trkpt lat="46.81071" lon="-0.83574">
        <ele>192.4</ele>
        <time>2015-03-01T12:15:39Z</time>
      </trkpt>
      <trkpt lat="46.81041" lon="-0.83437">
        <ele>193.36</ele>
        <time>2015-03-01T12:15:51Z</time>
      </trkpt>
      <trkpt lat="46.81007" lon="-0.83302">
        <ele>191.44</ele>
        <time>2015-03-01T12:16:01Z</time>
      </trkpt>
      <trkpt lat="46.80975" lon="-0.83172">
        <ele>188.56</ele>
        <time>2015-03-01T12:16:15Z</time>
      </trkpt>
      <trkpt lat="46.80962" lon="-0.83038">
        <ele>184.71</ele>
        <time>2015-03-01T12:16:28Z</time>
      </trkpt>
      <trkpt lat="46.80933" lon="-0.82902">
        <ele>183.27</ele>
        <time>2015-03-01T12:16:40Z</time>
      </trkpt>
      <trkpt lat="46.80936" lon="-0.82747">
        <ele>184.23</ele>
        <time>2015-03-01T12:16:47Z</time>
      </trkpt>
      <trkpt lat="46.80927" lon="-0.8258">
        <ele>185.67</ele>
        <time>2015-03-01T12:16:53Z</time>
      </trkpt>
      <trkpt lat="46.80915" lon="-0.82444">
        <ele>187.59</ele>
        <time>2015-03-01T12:16:59Z</time>
      </trkpt>
      <trkpt lat="46.80907" lon="-0.82308">
        <ele>189.04</ele>
        <time>2015-03-01T12:17:05Z</time>
      </trkpt>
      <trkpt lat="46.80905" lon="-0.82168">
        <ele>190</ele>
        <time>2015-03-01T12:17:11Z</time>
      </trkpt>
      <trkpt lat="46.80902" lon="-0.82032">
        <ele>193.84</ele>
        <time>2015-03-01T12:17:22Z</time>
      </trkpt>
      <trkpt lat="46.8092" lon="-0.81901">
        <ele>196.73</ele>
        <time>2015-03-01T12:17:41Z</time>
      </trkpt>
      <trkpt lat="46.80944" lon="-0.81766">
        <ele>197.21</ele>
        <time>2015-03-01T12:17:56Z</time>
      </trkpt>
      <trkpt lat="46.80935" lon="-0.81618">
        <ele>199.61</ele>
        <time>2015-03-01T12:18:29Z</time>
      </trkpt>
      <trkpt lat="46.80906" lon="-0.81475">
        <ele>192.4</ele>
        <time>2015-03-01T12:18:48Z</time>
      </trkpt>
      <trkpt lat="46.80878" lon="-0.81316">
        <ele>182.31</ele>
        <time>2015-03-01T12:19:14Z</time>
      </trkpt>
      <trkpt lat="46.80814" lon="-0.81073">
        <ele>175.1</ele>
        <time>2015-03-01T12:20:35Z</time>
      </trkpt>
      <trkpt lat="46.80848" lon="-0.80939">
        <ele>173.17</ele>
        <time>2015-03-01T12:21:09Z</time>
      </trkpt>
      <trkpt lat="46.80795" lon="-0.80795">
        <ele>169.81</ele>
        <time>2015-03-01T12:21:27Z</time>
      </trkpt>
      <trkpt lat="46.80772" lon="-0.80645">
        <ele>168.37</ele>
        <time>2015-03-01T12:21:35Z</time>
      </trkpt>
      <trkpt lat="46.80705" lon="-0.80705">
        <ele>161.64</ele>
        <time>2015-03-01T12:21:49Z</time>
      </trkpt>
      <trkpt lat="46.80624" lon="-0.80814">
        <ele>155.87</ele>
        <time>2015-03-01T12:21:55Z</time>
      </trkpt>
      <trkpt lat="46.80532" lon="-0.80859">
        <ele>152.03</ele>
        <time>2015-03-01T12:22:01Z</time>
      </trkpt>
      <trkpt lat="46.80443" lon="-0.80905">
        <ele>148.18</ele>
        <time>2015-03-01T12:22:07Z</time>
      </trkpt>
      <trkpt lat="46.80366" lon="-0.81012">
        <ele>144.82</ele>
        <time>2015-03-01T12:22:16Z</time>
      </trkpt>
      <trkpt lat="46.80299" lon="-0.81121">
        <ele>142.41</ele>
        <time>2015-03-01T12:22:21Z</time>
      </trkpt>
      <trkpt lat="46.80231" lon="-0.81236">
        <ele>139.53</ele>
        <time>2015-03-01T12:22:27Z</time>
      </trkpt>
      <trkpt lat="46.80195" lon="-0.81383">
        <ele>138.57</ele>
        <time>2015-03-01T12:22:33Z</time>
      </trkpt>
      <trkpt lat="46.80156" lon="-0.81524">
        <ele>138.09</ele>
        <time>2015-03-01T12:22:39Z</time>
      </trkpt>
      <trkpt lat="46.80138" lon="-0.81654">
        <ele>139.05</ele>
        <time>2015-03-01T12:22:46Z</time>
      </trkpt>
      <trkpt lat="46.80194" lon="-0.81781">
        <ele>140.49</ele>
        <time>2015-03-01T12:22:53Z</time>
      </trkpt>
      <trkpt lat="46.80246" lon="-0.81891">
        <ele>142.41</ele>
        <time>2015-03-01T12:23:00Z</time>
      </trkpt>
      <trkpt lat="46.80208" lon="-0.8196">
        <ele>169.33</ele>
        <time>2015-03-01T12:23:48Z</time>
      </trkpt>
      <trkpt lat="46.80113" lon="-0.81981">
        <ele>170.29</ele>
        <time>2015-03-01T12:23:53Z</time>
      </trkpt>
      <trkpt lat="46.8001" lon="-0.82025">
        <ele>171.25</ele>
        <time>2015-03-01T12:23:58Z</time>
      </trkpt>
      <trkpt lat="46.79919" lon="-0.82086">
        <ele>171.73</ele>
        <time>2015-03-01T12:24:03Z</time>
      </trkpt>
      <trkpt lat="46.79837" lon="-0.82153">
        <ele>172.21</ele>
        <time>2015-03-01T12:24:08Z</time>
      </trkpt>
      <trkpt lat="46.79757" lon="-0.82235">
        <ele>172.21</ele>
        <time>2015-03-01T12:24:14Z</time>
      </trkpt>
      <trkpt lat="46.79682" lon="-0.8227">
        <ele>173.66</ele>
        <time>2015-03-01T12:24:27Z</time>
      </trkpt>
      <trkpt lat="46.79634" lon="-0.82024">
        <ele>186.63</ele>
        <time>2015-03-01T12:24:36Z</time>
      </trkpt>
      <trkpt lat="46.79567" lon="-0.81926">
        <ele>187.11</ele>
        <time>2015-03-01T12:24:42Z</time>
      </trkpt>
      <trkpt lat="46.79487" lon="-0.81869">
        <ele>181.83</ele>
        <time>2015-03-01T12:24:49Z</time>
      </trkpt>
      <trkpt lat="46.794" lon="-0.81891">
        <ele>198.17</ele>
        <time>2015-03-01T12:27:21Z</time>
      </trkpt>
      <trkpt lat="46.79337" lon="-0.82065">
        <ele>180.38</ele>
        <time>2015-03-01T12:28:23Z</time>
      </trkpt>
      <trkpt lat="46.79282" lon="-0.8224">
        <ele>183.75</ele>
        <time>2015-03-01T12:30:36Z</time>
      </trkpt>
      <trkpt lat="46.79231" lon="-0.82413">
        <ele>180.87</ele>
        <time>2015-03-01T12:30:53Z</time>
      </trkpt>
      <trkpt lat="46.79171" lon="-0.82537">
        <ele>180.87</ele>
        <time>2015-03-01T12:31:06Z</time>
      </trkpt>
      <trkpt lat="46.79093" lon="-0.82621">
        <ele>180.87</ele>
        <time>2015-03-01T12:31:22Z</time>
      </trkpt>
      <trkpt lat="46.79013" lon="-0.8271">
        <ele>181.83</ele>
        <time>2015-03-01T12:31:37Z</time>
      </trkpt>
      <trkpt lat="46.78928" lon="-0.82826">
        <ele>193.36</ele>
        <time>2015-03-01T12:31:48Z</time>
      </trkpt>
      <trkpt lat="46.7887" lon="-0.82954">
        <ele>204.42</ele>
        <time>2015-03-01T12:31:59Z</time>
      </trkpt>
      <trkpt lat="46.78817" lon="-0.83041">
        <ele>214.99</ele>
        <time>2015-03-01T12:32:13Z</time>
      </trkpt>
      <trkpt lat="46.78719" lon="-0.82989">
        <ele>228.45</ele>
        <time>2015-03-01T12:32:23Z</time>
      </trkpt>
      <trkpt lat="46.78637" lon="-0.82923">
        <ele>234.7</ele>
        <time>2015-03-01T12:32:35Z</time>
      </trkpt>
      <trkpt lat="46.78537" lon="-0.82951">
        <ele>240.47</ele>
        <time>2015-03-01T12:32:53Z</time>
      </trkpt>
      <trkpt lat="46.78437" lon="-0.82901">
        <ele>241.91</ele>
        <time>2015-03-01T12:33:18Z</time>
      </trkpt>
      <trkpt lat="46.78361" lon="-0.82799">
        <ele>236.62</ele>
        <time>2015-03-01T12:33:27Z</time>
      </trkpt>
      <trkpt lat="46.783" lon="-0.83026">
        <ele>216.91</ele>
        <time>2015-03-01T12:33:41Z</time>
      </trkpt>
      <trkpt lat="46.7828" lon="-0.83163">
        <ele>224.12</ele>
        <time>2015-03-01T12:33:48Z</time>
      </trkpt>
      <trkpt lat="46.78272" lon="-0.833">
        <ele>225.09</ele>
        <time>2015-03-01T12:33:55Z</time>
      </trkpt>
      <trkpt lat="46.78278" lon="-0.83436">
        <ele>224.61</ele>
        <time>2015-03-01T12:34:02Z</time>
      </trkpt>
      <trkpt lat="46.78309" lon="-0.8356">
        <ele>225.09</ele>
        <time>2015-03-01T12:34:11Z</time>
      </trkpt>
      <trkpt lat="46.78222" lon="-0.83643">
        <ele>227.49</ele>
        <time>2015-03-01T12:34:20Z</time>
      </trkpt>
      <trkpt lat="46.78146" lon="-0.83739">
        <ele>229.89</ele>
        <time>2015-03-01T12:34:28Z</time>
      </trkpt>
      <trkpt lat="46.78141" lon="-0.83861">
        <ele>227.01</ele>
        <time>2015-03-01T12:34:38Z</time>
      </trkpt>
      <trkpt lat="46.78069" lon="-0.83939">
        <ele>225.57</ele>
        <time>2015-03-01T12:34:48Z</time>
      </trkpt>
      <trkpt lat="46.77978" lon="-0.83968">
        <ele>226.05</ele>
        <time>2015-03-01T12:34:56Z</time>
      </trkpt>
      <trkpt lat="46.7789" lon="-0.84017">
        <ele>223.64</ele>
        <time>2015-03-01T12:35:04Z</time>
      </trkpt>
      <trkpt lat="46.77812" lon="-0.84109">
        <ele>218.84</ele>
        <time>2015-03-01T12:35:12Z</time>
      </trkpt>
      <trkpt lat="46.77775" lon="-0.84225">
        <ele>212.59</ele>
        <time>2015-03-01T12:35:21Z</time>
      </trkpt>
      <trkpt lat="46.77718" lon="-0.84276">
        <ele>199.61</ele>
        <time>2015-03-01T12:35:41Z</time>
      </trkpt>
    </trkseg>
  </trk>
</gpx>